<?xml version="1.0" encoding="UTF-8" standalone="no" ?>
<gpx xmlns="http://www.topografix.com/GPX/1/1" xmlns:xsi="http://www.w3.org/2001/XMLSchema-instance" xsi:schemaLocation="http://www.topografix.com/GPX/1/1 http://www.topografix.com/GPX/1/1/gpx.xsd" version="1.1" creator="VisuGPX - https://www.visugpx.com">
  <metadata>
    <name>Haut-de-Bosdarros</name>
    <desc><![CDATA[Le départ a lieu sur une longue partie goudronnée descendante, mais avec un beau panorama sur les Pyrénées. Puis on longe un ruisseau, Le Gest, sur un magnifique sentier, à l\'ombre et au frais. La remontée se fait en bordure d\'un bois. Pour rejoindre le point de départ, il faut encore faire une bonne partie de goudron.]]></desc>
  </metadata>
  <trk>
    <name><![CDATA[Tracé actuel: 29 MAI 2012 14:38]]></name>
    <trkseg>
      <trkpt lat="43.17093" lon="-0.33172">
        <ele>340.92</ele>
        <time>2012-05-29T12:38:55Z</time>
      </trkpt>
      <trkpt lat="43.17085" lon="-0.33185">
        <ele>338.52</ele>
        <time>2012-05-29T12:39:11Z</time>
      </trkpt>
      <trkpt lat="43.17075" lon="-0.3319">
        <ele>339.48</ele>
        <time>2012-05-29T12:39:18Z</time>
      </trkpt>
      <trkpt lat="43.17065" lon="-0.33197">
        <ele>340.44</ele>
        <time>2012-05-29T12:39:26Z</time>
      </trkpt>
      <trkpt lat="43.17056" lon="-0.332">
        <ele>341.89</ele>
        <time>2012-05-29T12:39:34Z</time>
      </trkpt>
      <trkpt lat="43.17046" lon="-0.33205">
        <ele>342.85</ele>
        <time>2012-05-29T12:39:43Z</time>
      </trkpt>
      <trkpt lat="43.17036" lon="-0.33208">
        <ele>343.33</ele>
        <time>2012-05-29T12:39:51Z</time>
      </trkpt>
      <trkpt lat="43.17026" lon="-0.33211">
        <ele>343.33</ele>
        <time>2012-05-29T12:40:00Z</time>
      </trkpt>
      <trkpt lat="43.17016" lon="-0.33215">
        <ele>343.81</ele>
        <time>2012-05-29T12:40:08Z</time>
      </trkpt>
      <trkpt lat="43.17007" lon="-0.33218">
        <ele>342.85</ele>
        <time>2012-05-29T12:40:16Z</time>
      </trkpt>
      <trkpt lat="43.16997" lon="-0.33221">
        <ele>343.81</ele>
        <time>2012-05-29T12:40:24Z</time>
      </trkpt>
      <trkpt lat="43.16989" lon="-0.33228">
        <ele>343.81</ele>
        <time>2012-05-29T12:40:32Z</time>
      </trkpt>
      <trkpt lat="43.16984" lon="-0.3324">
        <ele>344.29</ele>
        <time>2012-05-29T12:40:41Z</time>
      </trkpt>
      <trkpt lat="43.16981" lon="-0.33257">
        <ele>344.29</ele>
        <time>2012-05-29T12:40:51Z</time>
      </trkpt>
      <trkpt lat="43.16976" lon="-0.33269">
        <ele>344.77</ele>
        <time>2012-05-29T12:40:58Z</time>
      </trkpt>
      <trkpt lat="43.16974" lon="-0.33286">
        <ele>344.77</ele>
        <time>2012-05-29T12:41:07Z</time>
      </trkpt>
      <trkpt lat="43.16973" lon="-0.33302">
        <ele>344.77</ele>
        <time>2012-05-29T12:41:16Z</time>
      </trkpt>
      <trkpt lat="43.16973" lon="-0.33317">
        <ele>344.77</ele>
        <time>2012-05-29T12:41:25Z</time>
      </trkpt>
      <trkpt lat="43.16972" lon="-0.3333">
        <ele>345.25</ele>
        <time>2012-05-29T12:41:34Z</time>
      </trkpt>
      <trkpt lat="43.16971" lon="-0.33343">
        <ele>345.73</ele>
        <time>2012-05-29T12:41:44Z</time>
      </trkpt>
      <trkpt lat="43.16967" lon="-0.33357">
        <ele>345.73</ele>
        <time>2012-05-29T12:41:53Z</time>
      </trkpt>
      <trkpt lat="43.16962" lon="-0.33366">
        <ele>347.17</ele>
        <time>2012-05-29T12:42:02Z</time>
      </trkpt>
      <trkpt lat="43.16954" lon="-0.33375">
        <ele>348.13</ele>
        <time>2012-05-29T12:42:12Z</time>
      </trkpt>
      <trkpt lat="43.16946" lon="-0.33383">
        <ele>348.62</ele>
        <time>2012-05-29T12:42:21Z</time>
      </trkpt>
      <trkpt lat="43.16938" lon="-0.3339">
        <ele>349.58</ele>
        <time>2012-05-29T12:42:31Z</time>
      </trkpt>
      <trkpt lat="43.16928" lon="-0.33395">
        <ele>350.06</ele>
        <time>2012-05-29T12:42:41Z</time>
      </trkpt>
      <trkpt lat="43.16921" lon="-0.33399">
        <ele>351.5</ele>
        <time>2012-05-29T12:42:51Z</time>
      </trkpt>
      <trkpt lat="43.16911" lon="-0.33402">
        <ele>352.94</ele>
        <time>2012-05-29T12:43:01Z</time>
      </trkpt>
      <trkpt lat="43.16901" lon="-0.33406">
        <ele>353.9</ele>
        <time>2012-05-29T12:43:11Z</time>
      </trkpt>
      <trkpt lat="43.16891" lon="-0.33409">
        <ele>354.38</ele>
        <time>2012-05-29T12:43:21Z</time>
      </trkpt>
      <trkpt lat="43.1688" lon="-0.33413">
        <ele>354.86</ele>
        <time>2012-05-29T12:43:32Z</time>
      </trkpt>
      <trkpt lat="43.1687" lon="-0.33416">
        <ele>356.31</ele>
        <time>2012-05-29T12:43:43Z</time>
      </trkpt>
      <trkpt lat="43.16861" lon="-0.33422">
        <ele>357.75</ele>
        <time>2012-05-29T12:43:54Z</time>
      </trkpt>
      <trkpt lat="43.16852" lon="-0.33426">
        <ele>358.71</ele>
        <time>2012-05-29T12:44:05Z</time>
      </trkpt>
      <trkpt lat="43.16843" lon="-0.33431">
        <ele>360.15</ele>
        <time>2012-05-29T12:44:16Z</time>
      </trkpt>
      <trkpt lat="43.16835" lon="-0.33434">
        <ele>361.59</ele>
        <time>2012-05-29T12:44:26Z</time>
      </trkpt>
      <trkpt lat="43.16824" lon="-0.33436">
        <ele>363.04</ele>
        <time>2012-05-29T12:44:38Z</time>
      </trkpt>
      <trkpt lat="43.16815" lon="-0.33439">
        <ele>364</ele>
        <time>2012-05-29T12:44:49Z</time>
      </trkpt>
      <trkpt lat="43.16805" lon="-0.33441">
        <ele>365.92</ele>
        <time>2012-05-29T12:45:02Z</time>
      </trkpt>
      <trkpt lat="43.16795" lon="-0.33444">
        <ele>366.88</ele>
        <time>2012-05-29T12:45:13Z</time>
      </trkpt>
      <trkpt lat="43.16784" lon="-0.33444">
        <ele>368.8</ele>
        <time>2012-05-29T12:45:25Z</time>
      </trkpt>
      <trkpt lat="43.16773" lon="-0.33446">
        <ele>370.24</ele>
        <time>2012-05-29T12:45:39Z</time>
      </trkpt>
      <trkpt lat="43.16762" lon="-0.33448">
        <ele>372.17</ele>
        <time>2012-05-29T12:45:54Z</time>
      </trkpt>
      <trkpt lat="43.16752" lon="-0.33444">
        <ele>374.09</ele>
        <time>2012-05-29T12:46:07Z</time>
      </trkpt>
      <trkpt lat="43.16748" lon="-0.33435">
        <ele>374.57</ele>
        <time>2012-05-29T12:46:23Z</time>
      </trkpt>
      <trkpt lat="43.16746" lon="-0.33424">
        <ele>376.01</ele>
        <time>2012-05-29T12:46:33Z</time>
      </trkpt>
      <trkpt lat="43.16742" lon="-0.33413">
        <ele>376.97</ele>
        <time>2012-05-29T12:46:44Z</time>
      </trkpt>
      <trkpt lat="43.1674" lon="-0.33401">
        <ele>377.94</ele>
        <time>2012-05-29T12:46:54Z</time>
      </trkpt>
      <trkpt lat="43.16737" lon="-0.33387">
        <ele>378.9</ele>
        <time>2012-05-29T12:47:05Z</time>
      </trkpt>
      <trkpt lat="43.16732" lon="-0.33374">
        <ele>379.38</ele>
        <time>2012-05-29T12:47:16Z</time>
      </trkpt>
      <trkpt lat="43.16727" lon="-0.33362">
        <ele>379.86</ele>
        <time>2012-05-29T12:47:25Z</time>
      </trkpt>
      <trkpt lat="43.16721" lon="-0.3335">
        <ele>379.38</ele>
        <time>2012-05-29T12:47:35Z</time>
      </trkpt>
      <trkpt lat="43.16716" lon="-0.3334">
        <ele>379.86</ele>
        <time>2012-05-29T12:47:44Z</time>
      </trkpt>
      <trkpt lat="43.16707" lon="-0.33333">
        <ele>379.86</ele>
        <time>2012-05-29T12:47:53Z</time>
      </trkpt>
      <trkpt lat="43.16695" lon="-0.33331">
        <ele>380.34</ele>
        <time>2012-05-29T12:48:02Z</time>
      </trkpt>
      <trkpt lat="43.16685" lon="-0.33336">
        <ele>380.82</ele>
        <time>2012-05-29T12:48:11Z</time>
      </trkpt>
      <trkpt lat="43.16676" lon="-0.33344">
        <ele>381.3</ele>
        <time>2012-05-29T12:48:20Z</time>
      </trkpt>
      <trkpt lat="43.16668" lon="-0.33353">
        <ele>381.78</ele>
        <time>2012-05-29T12:48:30Z</time>
      </trkpt>
      <trkpt lat="43.16659" lon="-0.33359">
        <ele>382.26</ele>
        <time>2012-05-29T12:48:39Z</time>
      </trkpt>
      <trkpt lat="43.1665" lon="-0.33364">
        <ele>382.26</ele>
        <time>2012-05-29T12:48:48Z</time>
      </trkpt>
      <trkpt lat="43.16641" lon="-0.33369">
        <ele>382.74</ele>
        <time>2012-05-29T12:48:56Z</time>
      </trkpt>
      <trkpt lat="43.16632" lon="-0.33374">
        <ele>382.74</ele>
        <time>2012-05-29T12:49:05Z</time>
      </trkpt>
      <trkpt lat="43.16623" lon="-0.3338">
        <ele>382.74</ele>
        <time>2012-05-29T12:49:14Z</time>
      </trkpt>
      <trkpt lat="43.16614" lon="-0.33385">
        <ele>382.74</ele>
        <time>2012-05-29T12:49:22Z</time>
      </trkpt>
      <trkpt lat="43.16605" lon="-0.33391">
        <ele>382.26</ele>
        <time>2012-05-29T12:49:31Z</time>
      </trkpt>
      <trkpt lat="43.16594" lon="-0.33396">
        <ele>383.22</ele>
        <time>2012-05-29T12:49:41Z</time>
      </trkpt>
      <trkpt lat="43.16585" lon="-0.33403">
        <ele>384.18</ele>
        <time>2012-05-29T12:49:51Z</time>
      </trkpt>
      <trkpt lat="43.16575" lon="-0.33411">
        <ele>385.15</ele>
        <time>2012-05-29T12:50:01Z</time>
      </trkpt>
      <trkpt lat="43.16567" lon="-0.33413">
        <ele>385.63</ele>
        <time>2012-05-29T12:50:21Z</time>
      </trkpt>
      <trkpt lat="43.16557" lon="-0.33415">
        <ele>386.11</ele>
        <time>2012-05-29T12:50:32Z</time>
      </trkpt>
      <trkpt lat="43.16547" lon="-0.33413">
        <ele>387.07</ele>
        <time>2012-05-29T12:50:42Z</time>
      </trkpt>
      <trkpt lat="43.16536" lon="-0.3341">
        <ele>388.03</ele>
        <time>2012-05-29T12:50:52Z</time>
      </trkpt>
      <trkpt lat="43.16527" lon="-0.33403">
        <ele>388.51</ele>
        <time>2012-05-29T12:51:02Z</time>
      </trkpt>
      <trkpt lat="43.16517" lon="-0.33399">
        <ele>389.47</ele>
        <time>2012-05-29T12:51:11Z</time>
      </trkpt>
      <trkpt lat="43.16508" lon="-0.33394">
        <ele>390.43</ele>
        <time>2012-05-29T12:51:20Z</time>
      </trkpt>
      <trkpt lat="43.16498" lon="-0.33396">
        <ele>391.39</ele>
        <time>2012-05-29T12:51:30Z</time>
      </trkpt>
      <trkpt lat="43.16485" lon="-0.33408">
        <ele>391.87</ele>
        <time>2012-05-29T12:51:39Z</time>
      </trkpt>
      <trkpt lat="43.16479" lon="-0.33421">
        <ele>391.39</ele>
        <time>2012-05-29T12:51:49Z</time>
      </trkpt>
      <trkpt lat="43.16476" lon="-0.33435">
        <ele>390.91</ele>
        <time>2012-05-29T12:53:46Z</time>
      </trkpt>
      <trkpt lat="43.16475" lon="-0.33452">
        <ele>389.95</ele>
        <time>2012-05-29T12:53:58Z</time>
      </trkpt>
      <trkpt lat="43.16474" lon="-0.33468">
        <ele>389.95</ele>
        <time>2012-05-29T12:54:09Z</time>
      </trkpt>
      <trkpt lat="43.16475" lon="-0.33483">
        <ele>390.43</ele>
        <time>2012-05-29T12:54:19Z</time>
      </trkpt>
      <trkpt lat="43.16478" lon="-0.33497">
        <ele>391.87</ele>
        <time>2012-05-29T12:54:29Z</time>
      </trkpt>
      <trkpt lat="43.16484" lon="-0.3351">
        <ele>391.87</ele>
        <time>2012-05-29T12:54:39Z</time>
      </trkpt>
      <trkpt lat="43.16492" lon="-0.33522">
        <ele>392.84</ele>
        <time>2012-05-29T12:54:49Z</time>
      </trkpt>
      <trkpt lat="43.165" lon="-0.33531">
        <ele>392.36</ele>
        <time>2012-05-29T12:54:58Z</time>
      </trkpt>
      <trkpt lat="43.16507" lon="-0.33544">
        <ele>392.84</ele>
        <time>2012-05-29T12:55:07Z</time>
      </trkpt>
      <trkpt lat="43.16515" lon="-0.33557">
        <ele>393.32</ele>
        <time>2012-05-29T12:55:16Z</time>
      </trkpt>
      <trkpt lat="43.16523" lon="-0.3357">
        <ele>392.84</ele>
        <time>2012-05-29T12:55:27Z</time>
      </trkpt>
      <trkpt lat="43.16531" lon="-0.33583">
        <ele>392.84</ele>
        <time>2012-05-29T12:55:37Z</time>
      </trkpt>
      <trkpt lat="43.16538" lon="-0.33598">
        <ele>392.84</ele>
        <time>2012-05-29T12:55:48Z</time>
      </trkpt>
      <trkpt lat="43.16542" lon="-0.33613">
        <ele>393.32</ele>
        <time>2012-05-29T12:55:57Z</time>
      </trkpt>
      <trkpt lat="43.16549" lon="-0.33632">
        <ele>393.8</ele>
        <time>2012-05-29T12:56:08Z</time>
      </trkpt>
      <trkpt lat="43.16552" lon="-0.33648">
        <ele>394.28</ele>
        <time>2012-05-29T12:56:18Z</time>
      </trkpt>
      <trkpt lat="43.16555" lon="-0.33665">
        <ele>395.24</ele>
        <time>2012-05-29T12:56:28Z</time>
      </trkpt>
      <trkpt lat="43.16558" lon="-0.33681">
        <ele>395.24</ele>
        <time>2012-05-29T12:56:38Z</time>
      </trkpt>
      <trkpt lat="43.16563" lon="-0.33696">
        <ele>395.24</ele>
        <time>2012-05-29T12:56:47Z</time>
      </trkpt>
      <trkpt lat="43.1657" lon="-0.33708">
        <ele>395.24</ele>
        <time>2012-05-29T12:56:56Z</time>
      </trkpt>
      <trkpt lat="43.16577" lon="-0.33719">
        <ele>395.72</ele>
        <time>2012-05-29T12:57:05Z</time>
      </trkpt>
      <trkpt lat="43.16582" lon="-0.33728">
        <ele>395.72</ele>
        <time>2012-05-29T12:57:13Z</time>
      </trkpt>
      <trkpt lat="43.16589" lon="-0.33739">
        <ele>395.72</ele>
        <time>2012-05-29T12:57:21Z</time>
      </trkpt>
      <trkpt lat="43.16596" lon="-0.33747">
        <ele>395.24</ele>
        <time>2012-05-29T12:57:29Z</time>
      </trkpt>
      <trkpt lat="43.16602" lon="-0.33756">
        <ele>394.28</ele>
        <time>2012-05-29T12:57:37Z</time>
      </trkpt>
      <trkpt lat="43.1661" lon="-0.33764">
        <ele>394.28</ele>
        <time>2012-05-29T12:57:45Z</time>
      </trkpt>
      <trkpt lat="43.16618" lon="-0.33773">
        <ele>394.28</ele>
        <time>2012-05-29T12:57:53Z</time>
      </trkpt>
      <trkpt lat="43.16625" lon="-0.33781">
        <ele>393.32</ele>
        <time>2012-05-29T12:58:01Z</time>
      </trkpt>
      <trkpt lat="43.16632" lon="-0.33789">
        <ele>393.32</ele>
        <time>2012-05-29T12:58:09Z</time>
      </trkpt>
      <trkpt lat="43.1664" lon="-0.33798">
        <ele>393.32</ele>
        <time>2012-05-29T12:58:17Z</time>
      </trkpt>
      <trkpt lat="43.16648" lon="-0.33807">
        <ele>392.36</ele>
        <time>2012-05-29T12:58:25Z</time>
      </trkpt>
      <trkpt lat="43.16656" lon="-0.33812">
        <ele>392.84</ele>
        <time>2012-05-29T12:58:33Z</time>
      </trkpt>
      <trkpt lat="43.16664" lon="-0.33819">
        <ele>391.87</ele>
        <time>2012-05-29T12:58:41Z</time>
      </trkpt>
      <trkpt lat="43.16672" lon="-0.33825">
        <ele>391.39</ele>
        <time>2012-05-29T12:58:49Z</time>
      </trkpt>
      <trkpt lat="43.1668" lon="-0.33833">
        <ele>391.39</ele>
        <time>2012-05-29T12:58:57Z</time>
      </trkpt>
      <trkpt lat="43.16688" lon="-0.33839">
        <ele>390.91</ele>
        <time>2012-05-29T12:59:05Z</time>
      </trkpt>
      <trkpt lat="43.16697" lon="-0.33846">
        <ele>390.43</ele>
        <time>2012-05-29T12:59:13Z</time>
      </trkpt>
      <trkpt lat="43.16706" lon="-0.33852">
        <ele>390.43</ele>
        <time>2012-05-29T12:59:21Z</time>
      </trkpt>
      <trkpt lat="43.16715" lon="-0.3386">
        <ele>389.95</ele>
        <time>2012-05-29T12:59:29Z</time>
      </trkpt>
      <trkpt lat="43.16723" lon="-0.33866">
        <ele>390.43</ele>
        <time>2012-05-29T12:59:37Z</time>
      </trkpt>
      <trkpt lat="43.16732" lon="-0.33874">
        <ele>390.91</ele>
        <time>2012-05-29T12:59:46Z</time>
      </trkpt>
      <trkpt lat="43.1674" lon="-0.33884">
        <ele>390.43</ele>
        <time>2012-05-29T12:59:55Z</time>
      </trkpt>
      <trkpt lat="43.16744" lon="-0.33899">
        <ele>390.43</ele>
        <time>2012-05-29T13:00:05Z</time>
      </trkpt>
      <trkpt lat="43.16745" lon="-0.33916">
        <ele>391.39</ele>
        <time>2012-05-29T13:00:16Z</time>
      </trkpt>
      <trkpt lat="43.16748" lon="-0.33935">
        <ele>391.39</ele>
        <time>2012-05-29T13:00:28Z</time>
      </trkpt>
      <trkpt lat="43.16749" lon="-0.33953">
        <ele>391.39</ele>
        <time>2012-05-29T13:00:37Z</time>
      </trkpt>
      <trkpt lat="43.16753" lon="-0.33967">
        <ele>390.91</ele>
        <time>2012-05-29T13:00:46Z</time>
      </trkpt>
      <trkpt lat="43.16758" lon="-0.33979">
        <ele>391.39</ele>
        <time>2012-05-29T13:00:54Z</time>
      </trkpt>
      <trkpt lat="43.16762" lon="-0.33992">
        <ele>390.91</ele>
        <time>2012-05-29T13:01:03Z</time>
      </trkpt>
      <trkpt lat="43.16766" lon="-0.34009">
        <ele>389.47</ele>
        <time>2012-05-29T13:01:15Z</time>
      </trkpt>
      <trkpt lat="43.16771" lon="-0.34025">
        <ele>388.03</ele>
        <time>2012-05-29T13:01:26Z</time>
      </trkpt>
      <trkpt lat="43.16777" lon="-0.34045">
        <ele>387.07</ele>
        <time>2012-05-29T13:01:39Z</time>
      </trkpt>
      <trkpt lat="43.16784" lon="-0.34064">
        <ele>385.63</ele>
        <time>2012-05-29T13:01:52Z</time>
      </trkpt>
      <trkpt lat="43.16793" lon="-0.34074">
        <ele>384.18</ele>
        <time>2012-05-29T13:02:02Z</time>
      </trkpt>
      <trkpt lat="43.16804" lon="-0.34074">
        <ele>382.74</ele>
        <time>2012-05-29T13:02:11Z</time>
      </trkpt>
      <trkpt lat="43.16814" lon="-0.34068">
        <ele>382.26</ele>
        <time>2012-05-29T13:02:19Z</time>
      </trkpt>
      <trkpt lat="43.16822" lon="-0.34056">
        <ele>381.3</ele>
        <time>2012-05-29T13:02:28Z</time>
      </trkpt>
      <trkpt lat="43.1683" lon="-0.34046">
        <ele>380.34</ele>
        <time>2012-05-29T13:02:37Z</time>
      </trkpt>
      <trkpt lat="43.16833" lon="-0.34054">
        <ele>379.86</ele>
        <time>2012-05-29T13:03:11Z</time>
      </trkpt>
      <trkpt lat="43.16831" lon="-0.3407">
        <ele>377.94</ele>
        <time>2012-05-29T13:03:20Z</time>
      </trkpt>
      <trkpt lat="43.16827" lon="-0.34083">
        <ele>376.97</ele>
        <time>2012-05-29T13:03:29Z</time>
      </trkpt>
      <trkpt lat="43.16823" lon="-0.34097">
        <ele>376.49</ele>
        <time>2012-05-29T13:03:38Z</time>
      </trkpt>
      <trkpt lat="43.16822" lon="-0.34111">
        <ele>375.05</ele>
        <time>2012-05-29T13:03:47Z</time>
      </trkpt>
      <trkpt lat="43.16819" lon="-0.34129">
        <ele>374.09</ele>
        <time>2012-05-29T13:03:57Z</time>
      </trkpt>
      <trkpt lat="43.16817" lon="-0.34142">
        <ele>373.13</ele>
        <time>2012-05-29T13:04:05Z</time>
      </trkpt>
      <trkpt lat="43.16816" lon="-0.34155">
        <ele>372.17</ele>
        <time>2012-05-29T13:04:14Z</time>
      </trkpt>
      <trkpt lat="43.1682" lon="-0.34168">
        <ele>370.73</ele>
        <time>2012-05-29T13:04:23Z</time>
      </trkpt>
      <trkpt lat="43.16827" lon="-0.34179">
        <ele>369.28</ele>
        <time>2012-05-29T13:04:32Z</time>
      </trkpt>
      <trkpt lat="43.16833" lon="-0.34191">
        <ele>369.28</ele>
        <time>2012-05-29T13:04:41Z</time>
      </trkpt>
      <trkpt lat="43.16843" lon="-0.34199">
        <ele>368.8</ele>
        <time>2012-05-29T13:04:50Z</time>
      </trkpt>
      <trkpt lat="43.16852" lon="-0.34206">
        <ele>368.32</ele>
        <time>2012-05-29T13:04:59Z</time>
      </trkpt>
      <trkpt lat="43.16861" lon="-0.34211">
        <ele>368.32</ele>
        <time>2012-05-29T13:05:07Z</time>
      </trkpt>
      <trkpt lat="43.16872" lon="-0.34215">
        <ele>368.32</ele>
        <time>2012-05-29T13:05:15Z</time>
      </trkpt>
      <trkpt lat="43.16882" lon="-0.34217">
        <ele>367.84</ele>
        <time>2012-05-29T13:05:23Z</time>
      </trkpt>
      <trkpt lat="43.16892" lon="-0.34216">
        <ele>368.32</ele>
        <time>2012-05-29T13:05:31Z</time>
      </trkpt>
      <trkpt lat="43.16903" lon="-0.34215">
        <ele>368.32</ele>
        <time>2012-05-29T13:05:39Z</time>
      </trkpt>
      <trkpt lat="43.16913" lon="-0.34213">
        <ele>368.32</ele>
        <time>2012-05-29T13:05:47Z</time>
      </trkpt>
      <trkpt lat="43.16923" lon="-0.34211">
        <ele>368.8</ele>
        <time>2012-05-29T13:05:55Z</time>
      </trkpt>
      <trkpt lat="43.16935" lon="-0.34212">
        <ele>369.76</ele>
        <time>2012-05-29T13:06:04Z</time>
      </trkpt>
      <trkpt lat="43.16948" lon="-0.34212">
        <ele>371.21</ele>
        <time>2012-05-29T13:06:15Z</time>
      </trkpt>
      <trkpt lat="43.16963" lon="-0.34211">
        <ele>373.61</ele>
        <time>2012-05-29T13:06:34Z</time>
      </trkpt>
      <trkpt lat="43.16978" lon="-0.34209">
        <ele>375.05</ele>
        <time>2012-05-29T13:06:46Z</time>
      </trkpt>
      <trkpt lat="43.16991" lon="-0.34208">
        <ele>376.01</ele>
        <time>2012-05-29T13:06:56Z</time>
      </trkpt>
      <trkpt lat="43.17008" lon="-0.34206">
        <ele>376.97</ele>
        <time>2012-05-29T13:07:09Z</time>
      </trkpt>
      <trkpt lat="43.17018" lon="-0.34205">
        <ele>376.97</ele>
        <time>2012-05-29T13:07:17Z</time>
      </trkpt>
      <trkpt lat="43.17026" lon="-0.34205">
        <ele>376.49</ele>
        <time>2012-05-29T13:07:25Z</time>
      </trkpt>
      <trkpt lat="43.17038" lon="-0.34202">
        <ele>375.53</ele>
        <time>2012-05-29T13:07:35Z</time>
      </trkpt>
      <trkpt lat="43.17051" lon="-0.34199">
        <ele>373.61</ele>
        <time>2012-05-29T13:07:46Z</time>
      </trkpt>
      <trkpt lat="43.17061" lon="-0.34194">
        <ele>371.69</ele>
        <time>2012-05-29T13:07:56Z</time>
      </trkpt>
      <trkpt lat="43.17073" lon="-0.34187">
        <ele>369.76</ele>
        <time>2012-05-29T13:08:06Z</time>
      </trkpt>
      <trkpt lat="43.17082" lon="-0.34179">
        <ele>368.8</ele>
        <time>2012-05-29T13:08:15Z</time>
      </trkpt>
      <trkpt lat="43.17092" lon="-0.34172">
        <ele>367.84</ele>
        <time>2012-05-29T13:08:25Z</time>
      </trkpt>
      <trkpt lat="43.17101" lon="-0.34167">
        <ele>366.4</ele>
        <time>2012-05-29T13:08:33Z</time>
      </trkpt>
      <trkpt lat="43.17111" lon="-0.34166">
        <ele>365.44</ele>
        <time>2012-05-29T13:08:42Z</time>
      </trkpt>
      <trkpt lat="43.1712" lon="-0.34166">
        <ele>363.52</ele>
        <time>2012-05-29T13:08:50Z</time>
      </trkpt>
      <trkpt lat="43.17132" lon="-0.34166">
        <ele>362.07</ele>
        <time>2012-05-29T13:09:00Z</time>
      </trkpt>
      <trkpt lat="43.17143" lon="-0.34166">
        <ele>360.63</ele>
        <time>2012-05-29T13:09:09Z</time>
      </trkpt>
      <trkpt lat="43.17156" lon="-0.34165">
        <ele>359.19</ele>
        <time>2012-05-29T13:09:19Z</time>
      </trkpt>
      <trkpt lat="43.17167" lon="-0.3416">
        <ele>358.71</ele>
        <time>2012-05-29T13:09:29Z</time>
      </trkpt>
      <trkpt lat="43.1718" lon="-0.34153">
        <ele>358.71</ele>
        <time>2012-05-29T13:09:40Z</time>
      </trkpt>
      <trkpt lat="43.17192" lon="-0.34151">
        <ele>358.23</ele>
        <time>2012-05-29T13:09:49Z</time>
      </trkpt>
      <trkpt lat="43.17202" lon="-0.3415">
        <ele>357.75</ele>
        <time>2012-05-29T13:09:57Z</time>
      </trkpt>
      <trkpt lat="43.17212" lon="-0.3415">
        <ele>356.79</ele>
        <time>2012-05-29T13:10:05Z</time>
      </trkpt>
      <trkpt lat="43.17222" lon="-0.34152">
        <ele>355.83</ele>
        <time>2012-05-29T13:10:13Z</time>
      </trkpt>
      <trkpt lat="43.17232" lon="-0.34154">
        <ele>354.38</ele>
        <time>2012-05-29T13:10:21Z</time>
      </trkpt>
      <trkpt lat="43.17241" lon="-0.34156">
        <ele>353.42</ele>
        <time>2012-05-29T13:10:29Z</time>
      </trkpt>
      <trkpt lat="43.17251" lon="-0.34156">
        <ele>351.02</ele>
        <time>2012-05-29T13:10:37Z</time>
      </trkpt>
      <trkpt lat="43.17262" lon="-0.34158">
        <ele>349.58</ele>
        <time>2012-05-29T13:10:46Z</time>
      </trkpt>
      <trkpt lat="43.17271" lon="-0.34159">
        <ele>348.62</ele>
        <time>2012-05-29T13:10:54Z</time>
      </trkpt>
      <trkpt lat="43.17281" lon="-0.34159">
        <ele>347.17</ele>
        <time>2012-05-29T13:11:02Z</time>
      </trkpt>
      <trkpt lat="43.17291" lon="-0.3416">
        <ele>346.21</ele>
        <time>2012-05-29T13:11:10Z</time>
      </trkpt>
      <trkpt lat="43.173" lon="-0.34161">
        <ele>345.25</ele>
        <time>2012-05-29T13:11:18Z</time>
      </trkpt>
      <trkpt lat="43.17309" lon="-0.34162">
        <ele>343.81</ele>
        <time>2012-05-29T13:11:26Z</time>
      </trkpt>
      <trkpt lat="43.17319" lon="-0.34162">
        <ele>342.85</ele>
        <time>2012-05-29T13:11:35Z</time>
      </trkpt>
      <trkpt lat="43.17329" lon="-0.34162">
        <ele>340.92</ele>
        <time>2012-05-29T13:11:43Z</time>
      </trkpt>
      <trkpt lat="43.17338" lon="-0.34163">
        <ele>339.48</ele>
        <time>2012-05-29T13:11:51Z</time>
      </trkpt>
      <trkpt lat="43.17349" lon="-0.34164">
        <ele>337.08</ele>
        <time>2012-05-29T13:11:59Z</time>
      </trkpt>
      <trkpt lat="43.17358" lon="-0.34164">
        <ele>336.6</ele>
        <time>2012-05-29T13:12:07Z</time>
      </trkpt>
      <trkpt lat="43.17368" lon="-0.34163">
        <ele>335.16</ele>
        <time>2012-05-29T13:12:15Z</time>
      </trkpt>
      <trkpt lat="43.17377" lon="-0.34164">
        <ele>334.2</ele>
        <time>2012-05-29T13:12:23Z</time>
      </trkpt>
      <trkpt lat="43.17387" lon="-0.34164">
        <ele>332.75</ele>
        <time>2012-05-29T13:12:31Z</time>
      </trkpt>
      <trkpt lat="43.17397" lon="-0.34164">
        <ele>331.79</ele>
        <time>2012-05-29T13:12:39Z</time>
      </trkpt>
      <trkpt lat="43.17407" lon="-0.34166">
        <ele>329.87</ele>
        <time>2012-05-29T13:12:47Z</time>
      </trkpt>
      <trkpt lat="43.17415" lon="-0.34167">
        <ele>329.39</ele>
        <time>2012-05-29T13:12:55Z</time>
      </trkpt>
      <trkpt lat="43.17426" lon="-0.34168">
        <ele>327.95</ele>
        <time>2012-05-29T13:13:04Z</time>
      </trkpt>
      <trkpt lat="43.17436" lon="-0.34172">
        <ele>326.5</ele>
        <time>2012-05-29T13:13:13Z</time>
      </trkpt>
      <trkpt lat="43.17446" lon="-0.3418">
        <ele>324.58</ele>
        <time>2012-05-29T13:13:22Z</time>
      </trkpt>
      <trkpt lat="43.17453" lon="-0.34186">
        <ele>323.62</ele>
        <time>2012-05-29T13:13:30Z</time>
      </trkpt>
      <trkpt lat="43.17459" lon="-0.34195">
        <ele>322.18</ele>
        <time>2012-05-29T13:13:39Z</time>
      </trkpt>
      <trkpt lat="43.17466" lon="-0.34207">
        <ele>321.22</ele>
        <time>2012-05-29T13:13:49Z</time>
      </trkpt>
      <trkpt lat="43.17471" lon="-0.34224">
        <ele>320.26</ele>
        <time>2012-05-29T13:13:59Z</time>
      </trkpt>
      <trkpt lat="43.17475" lon="-0.34238">
        <ele>318.81</ele>
        <time>2012-05-29T13:14:08Z</time>
      </trkpt>
      <trkpt lat="43.17479" lon="-0.34252">
        <ele>318.33</ele>
        <time>2012-05-29T13:14:17Z</time>
      </trkpt>
      <trkpt lat="43.17481" lon="-0.34265">
        <ele>316.89</ele>
        <time>2012-05-29T13:14:25Z</time>
      </trkpt>
      <trkpt lat="43.17485" lon="-0.34278">
        <ele>316.41</ele>
        <time>2012-05-29T13:14:32Z</time>
      </trkpt>
      <trkpt lat="43.17486" lon="-0.34293">
        <ele>314.97</ele>
        <time>2012-05-29T13:14:41Z</time>
      </trkpt>
      <trkpt lat="43.17479" lon="-0.34304">
        <ele>314.49</ele>
        <time>2012-05-29T13:14:52Z</time>
      </trkpt>
      <trkpt lat="43.17469" lon="-0.34309">
        <ele>313.05</ele>
        <time>2012-05-29T13:15:03Z</time>
      </trkpt>
      <trkpt lat="43.17466" lon="-0.34317">
        <ele>310.64</ele>
        <time>2012-05-29T13:18:45Z</time>
      </trkpt>
      <trkpt lat="43.17464" lon="-0.3433">
        <ele>310.16</ele>
        <time>2012-05-29T13:18:57Z</time>
      </trkpt>
      <trkpt lat="43.17461" lon="-0.34343">
        <ele>309.2</ele>
        <time>2012-05-29T13:19:06Z</time>
      </trkpt>
      <trkpt lat="43.17463" lon="-0.34347">
        <ele>309.2</ele>
        <time>2012-05-29T13:19:24Z</time>
      </trkpt>
      <trkpt lat="43.17463" lon="-0.34361">
        <ele>308.24</ele>
        <time>2012-05-29T13:19:33Z</time>
      </trkpt>
      <trkpt lat="43.17467" lon="-0.34376">
        <ele>307.76</ele>
        <time>2012-05-29T13:19:43Z</time>
      </trkpt>
      <trkpt lat="43.1747" lon="-0.34389">
        <ele>307.28</ele>
        <time>2012-05-29T13:19:52Z</time>
      </trkpt>
      <trkpt lat="43.17472" lon="-0.34401">
        <ele>306.8</ele>
        <time>2012-05-29T13:20:02Z</time>
      </trkpt>
      <trkpt lat="43.17473" lon="-0.34418">
        <ele>305.84</ele>
        <time>2012-05-29T13:20:12Z</time>
      </trkpt>
      <trkpt lat="43.17473" lon="-0.34433">
        <ele>304.88</ele>
        <time>2012-05-29T13:20:22Z</time>
      </trkpt>
      <trkpt lat="43.17476" lon="-0.34448">
        <ele>303.43</ele>
        <time>2012-05-29T13:20:32Z</time>
      </trkpt>
      <trkpt lat="43.17476" lon="-0.34468">
        <ele>302.47</ele>
        <time>2012-05-29T13:20:43Z</time>
      </trkpt>
      <trkpt lat="43.17476" lon="-0.34484">
        <ele>301.51</ele>
        <time>2012-05-29T13:20:53Z</time>
      </trkpt>
      <trkpt lat="43.17474" lon="-0.34498">
        <ele>300.07</ele>
        <time>2012-05-29T13:21:03Z</time>
      </trkpt>
      <trkpt lat="43.1747" lon="-0.34511">
        <ele>299.11</ele>
        <time>2012-05-29T13:21:12Z</time>
      </trkpt>
      <trkpt lat="43.17465" lon="-0.34524">
        <ele>298.63</ele>
        <time>2012-05-29T13:21:20Z</time>
      </trkpt>
      <trkpt lat="43.1746" lon="-0.34537">
        <ele>298.15</ele>
        <time>2012-05-29T13:21:30Z</time>
      </trkpt>
      <trkpt lat="43.17456" lon="-0.34549">
        <ele>297.67</ele>
        <time>2012-05-29T13:21:39Z</time>
      </trkpt>
      <trkpt lat="43.17451" lon="-0.34565">
        <ele>296.7</ele>
        <time>2012-05-29T13:21:48Z</time>
      </trkpt>
      <trkpt lat="43.17445" lon="-0.34575">
        <ele>294.78</ele>
        <time>2012-05-29T13:21:57Z</time>
      </trkpt>
      <trkpt lat="43.17437" lon="-0.34582">
        <ele>292.38</ele>
        <time>2012-05-29T13:22:10Z</time>
      </trkpt>
      <trkpt lat="43.17428" lon="-0.34589">
        <ele>291.9</ele>
        <time>2012-05-29T13:22:17Z</time>
      </trkpt>
      <trkpt lat="43.17429" lon="-0.3461">
        <ele>290.94</ele>
        <time>2012-05-29T13:22:27Z</time>
      </trkpt>
      <trkpt lat="43.17434" lon="-0.34624">
        <ele>290.94</ele>
        <time>2012-05-29T13:22:36Z</time>
      </trkpt>
      <trkpt lat="43.17436" lon="-0.3464">
        <ele>290.46</ele>
        <time>2012-05-29T13:22:46Z</time>
      </trkpt>
      <trkpt lat="43.17437" lon="-0.34654">
        <ele>288.53</ele>
        <time>2012-05-29T13:22:56Z</time>
      </trkpt>
      <trkpt lat="43.17428" lon="-0.34665">
        <ele>287.09</ele>
        <time>2012-05-29T13:23:05Z</time>
      </trkpt>
      <trkpt lat="43.17424" lon="-0.34669">
        <ele>286.61</ele>
        <time>2012-05-29T13:23:19Z</time>
      </trkpt>
      <trkpt lat="43.17418" lon="-0.34678">
        <ele>286.61</ele>
        <time>2012-05-29T13:23:33Z</time>
      </trkpt>
      <trkpt lat="43.17409" lon="-0.34684">
        <ele>286.13</ele>
        <time>2012-05-29T13:23:54Z</time>
      </trkpt>
      <trkpt lat="43.17397" lon="-0.34694">
        <ele>285.65</ele>
        <time>2012-05-29T13:24:04Z</time>
      </trkpt>
      <trkpt lat="43.17387" lon="-0.34701">
        <ele>285.65</ele>
        <time>2012-05-29T13:24:13Z</time>
      </trkpt>
      <trkpt lat="43.17376" lon="-0.3471">
        <ele>285.17</ele>
        <time>2012-05-29T13:24:23Z</time>
      </trkpt>
      <trkpt lat="43.17366" lon="-0.34721">
        <ele>284.21</ele>
        <time>2012-05-29T13:24:35Z</time>
      </trkpt>
      <trkpt lat="43.17357" lon="-0.3473">
        <ele>283.73</ele>
        <time>2012-05-29T13:24:45Z</time>
      </trkpt>
      <trkpt lat="43.17347" lon="-0.3474">
        <ele>282.28</ele>
        <time>2012-05-29T13:24:55Z</time>
      </trkpt>
      <trkpt lat="43.17339" lon="-0.34748">
        <ele>282.28</ele>
        <time>2012-05-29T13:25:03Z</time>
      </trkpt>
      <trkpt lat="43.17331" lon="-0.34758">
        <ele>281.8</ele>
        <time>2012-05-29T13:25:13Z</time>
      </trkpt>
      <trkpt lat="43.1732" lon="-0.3476">
        <ele>282.28</ele>
        <time>2012-05-29T13:25:27Z</time>
      </trkpt>
      <trkpt lat="43.17309" lon="-0.3476">
        <ele>284.69</ele>
        <time>2012-05-29T13:25:37Z</time>
      </trkpt>
      <trkpt lat="43.17297" lon="-0.34764">
        <ele>285.65</ele>
        <time>2012-05-29T13:27:10Z</time>
      </trkpt>
      <trkpt lat="43.17287" lon="-0.34768">
        <ele>286.13</ele>
        <time>2012-05-29T13:27:20Z</time>
      </trkpt>
      <trkpt lat="43.17279" lon="-0.34767">
        <ele>286.61</ele>
        <time>2012-05-29T13:27:30Z</time>
      </trkpt>
      <trkpt lat="43.17269" lon="-0.34769">
        <ele>287.57</ele>
        <time>2012-05-29T13:27:40Z</time>
      </trkpt>
      <trkpt lat="43.1726" lon="-0.34772">
        <ele>288.05</ele>
        <time>2012-05-29T13:27:50Z</time>
      </trkpt>
      <trkpt lat="43.17252" lon="-0.34776">
        <ele>288.53</ele>
        <time>2012-05-29T13:28:00Z</time>
      </trkpt>
      <trkpt lat="43.17242" lon="-0.34775">
        <ele>288.53</ele>
        <time>2012-05-29T13:28:13Z</time>
      </trkpt>
      <trkpt lat="43.17233" lon="-0.34776">
        <ele>288.53</ele>
        <time>2012-05-29T13:28:22Z</time>
      </trkpt>
      <trkpt lat="43.17221" lon="-0.34779">
        <ele>288.05</ele>
        <time>2012-05-29T13:29:15Z</time>
      </trkpt>
      <trkpt lat="43.17212" lon="-0.34779">
        <ele>288.05</ele>
        <time>2012-05-29T13:29:21Z</time>
      </trkpt>
      <trkpt lat="43.17203" lon="-0.34781">
        <ele>286.61</ele>
        <time>2012-05-29T13:29:30Z</time>
      </trkpt>
      <trkpt lat="43.17194" lon="-0.3478">
        <ele>286.13</ele>
        <time>2012-05-29T13:29:38Z</time>
      </trkpt>
      <trkpt lat="43.17184" lon="-0.34778">
        <ele>284.69</ele>
        <time>2012-05-29T13:29:48Z</time>
      </trkpt>
      <trkpt lat="43.17172" lon="-0.34778">
        <ele>284.69</ele>
        <time>2012-05-29T13:30:19Z</time>
      </trkpt>
      <trkpt lat="43.17157" lon="-0.34786">
        <ele>286.13</ele>
        <time>2012-05-29T13:30:38Z</time>
      </trkpt>
      <trkpt lat="43.17146" lon="-0.34783">
        <ele>286.13</ele>
        <time>2012-05-29T13:31:36Z</time>
      </trkpt>
      <trkpt lat="43.17132" lon="-0.34773">
        <ele>286.61</ele>
        <time>2012-05-29T13:31:50Z</time>
      </trkpt>
      <trkpt lat="43.17121" lon="-0.3477">
        <ele>285.65</ele>
        <time>2012-05-29T13:31:59Z</time>
      </trkpt>
      <trkpt lat="43.17115" lon="-0.34762">
        <ele>286.61</ele>
        <time>2012-05-29T13:32:06Z</time>
      </trkpt>
      <trkpt lat="43.17108" lon="-0.34756">
        <ele>289.01</ele>
        <time>2012-05-29T13:32:20Z</time>
      </trkpt>
      <trkpt lat="43.17099" lon="-0.34755">
        <ele>287.57</ele>
        <time>2012-05-29T13:32:47Z</time>
      </trkpt>
      <trkpt lat="43.17089" lon="-0.34747">
        <ele>287.57</ele>
        <time>2012-05-29T13:32:59Z</time>
      </trkpt>
      <trkpt lat="43.17079" lon="-0.34743">
        <ele>288.05</ele>
        <time>2012-05-29T13:33:07Z</time>
      </trkpt>
      <trkpt lat="43.17068" lon="-0.3474">
        <ele>287.09</ele>
        <time>2012-05-29T13:33:22Z</time>
      </trkpt>
      <trkpt lat="43.17059" lon="-0.3474">
        <ele>287.09</ele>
        <time>2012-05-29T13:33:31Z</time>
      </trkpt>
      <trkpt lat="43.1705" lon="-0.34738">
        <ele>289.01</ele>
        <time>2012-05-29T13:33:39Z</time>
      </trkpt>
      <trkpt lat="43.17041" lon="-0.34736">
        <ele>289.49</ele>
        <time>2012-05-29T13:33:55Z</time>
      </trkpt>
      <trkpt lat="43.1703" lon="-0.3473">
        <ele>289.01</ele>
        <time>2012-05-29T13:34:07Z</time>
      </trkpt>
      <trkpt lat="43.17021" lon="-0.34727">
        <ele>288.53</ele>
        <time>2012-05-29T13:34:19Z</time>
      </trkpt>
      <trkpt lat="43.17011" lon="-0.34724">
        <ele>289.01</ele>
        <time>2012-05-29T13:34:28Z</time>
      </trkpt>
      <trkpt lat="43.17001" lon="-0.34724">
        <ele>288.53</ele>
        <time>2012-05-29T13:34:36Z</time>
      </trkpt>
      <trkpt lat="43.16992" lon="-0.34728">
        <ele>287.57</ele>
        <time>2012-05-29T13:34:46Z</time>
      </trkpt>
      <trkpt lat="43.16983" lon="-0.34726">
        <ele>288.05</ele>
        <time>2012-05-29T13:34:55Z</time>
      </trkpt>
      <trkpt lat="43.16974" lon="-0.34727">
        <ele>288.53</ele>
        <time>2012-05-29T13:35:04Z</time>
      </trkpt>
      <trkpt lat="43.16966" lon="-0.34722">
        <ele>289.49</ele>
        <time>2012-05-29T13:35:13Z</time>
      </trkpt>
      <trkpt lat="43.16954" lon="-0.34724">
        <ele>290.94</ele>
        <time>2012-05-29T13:35:25Z</time>
      </trkpt>
      <trkpt lat="43.16942" lon="-0.34726">
        <ele>291.42</ele>
        <time>2012-05-29T13:35:35Z</time>
      </trkpt>
      <trkpt lat="43.16935" lon="-0.3473">
        <ele>290.46</ele>
        <time>2012-05-29T13:35:48Z</time>
      </trkpt>
      <trkpt lat="43.16927" lon="-0.3473">
        <ele>289.01</ele>
        <time>2012-05-29T13:36:00Z</time>
      </trkpt>
      <trkpt lat="43.16925" lon="-0.34718">
        <ele>288.53</ele>
        <time>2012-05-29T13:36:09Z</time>
      </trkpt>
      <trkpt lat="43.16922" lon="-0.34706">
        <ele>289.01</ele>
        <time>2012-05-29T13:36:21Z</time>
      </trkpt>
      <trkpt lat="43.16916" lon="-0.34695">
        <ele>289.01</ele>
        <time>2012-05-29T13:36:32Z</time>
      </trkpt>
      <trkpt lat="43.16909" lon="-0.34686">
        <ele>289.49</ele>
        <time>2012-05-29T13:36:41Z</time>
      </trkpt>
      <trkpt lat="43.16901" lon="-0.34678">
        <ele>289.49</ele>
        <time>2012-05-29T13:36:53Z</time>
      </trkpt>
      <trkpt lat="43.16897" lon="-0.34666">
        <ele>289.97</ele>
        <time>2012-05-29T13:37:09Z</time>
      </trkpt>
      <trkpt lat="43.16896" lon="-0.34653">
        <ele>290.94</ele>
        <time>2012-05-29T13:37:23Z</time>
      </trkpt>
      <trkpt lat="43.16883" lon="-0.34633">
        <ele>290.46</ele>
        <time>2012-05-29T13:37:52Z</time>
      </trkpt>
      <trkpt lat="43.1687" lon="-0.34622">
        <ele>290.94</ele>
        <time>2012-05-29T13:38:03Z</time>
      </trkpt>
      <trkpt lat="43.16863" lon="-0.34618">
        <ele>289.97</ele>
        <time>2012-05-29T13:38:30Z</time>
      </trkpt>
      <trkpt lat="43.16852" lon="-0.34615">
        <ele>289.97</ele>
        <time>2012-05-29T13:38:45Z</time>
      </trkpt>
      <trkpt lat="43.16843" lon="-0.34608">
        <ele>290.46</ele>
        <time>2012-05-29T13:38:55Z</time>
      </trkpt>
      <trkpt lat="43.16832" lon="-0.34598">
        <ele>290.46</ele>
        <time>2012-05-29T13:39:09Z</time>
      </trkpt>
      <trkpt lat="43.16822" lon="-0.34591">
        <ele>289.97</ele>
        <time>2012-05-29T13:39:20Z</time>
      </trkpt>
      <trkpt lat="43.16816" lon="-0.34578">
        <ele>291.42</ele>
        <time>2012-05-29T13:39:35Z</time>
      </trkpt>
      <trkpt lat="43.16809" lon="-0.34566">
        <ele>292.38</ele>
        <time>2012-05-29T13:39:45Z</time>
      </trkpt>
      <trkpt lat="43.16804" lon="-0.34558">
        <ele>291.42</ele>
        <time>2012-05-29T13:41:17Z</time>
      </trkpt>
      <trkpt lat="43.168" lon="-0.34557">
        <ele>290.46</ele>
        <time>2012-05-29T13:43:40Z</time>
      </trkpt>
      <trkpt lat="43.16792" lon="-0.34546">
        <ele>290.46</ele>
        <time>2012-05-29T13:43:48Z</time>
      </trkpt>
      <trkpt lat="43.16784" lon="-0.34539">
        <ele>291.42</ele>
        <time>2012-05-29T13:43:56Z</time>
      </trkpt>
      <trkpt lat="43.16773" lon="-0.34537">
        <ele>291.42</ele>
        <time>2012-05-29T13:44:06Z</time>
      </trkpt>
      <trkpt lat="43.16777" lon="-0.34525">
        <ele>290.46</ele>
        <time>2012-05-29T13:44:19Z</time>
      </trkpt>
      <trkpt lat="43.16779" lon="-0.34512">
        <ele>290.94</ele>
        <time>2012-05-29T13:44:36Z</time>
      </trkpt>
      <trkpt lat="43.16779" lon="-0.345">
        <ele>290.94</ele>
        <time>2012-05-29T13:44:43Z</time>
      </trkpt>
      <trkpt lat="43.16778" lon="-0.34487">
        <ele>290.94</ele>
        <time>2012-05-29T13:44:52Z</time>
      </trkpt>
      <trkpt lat="43.16777" lon="-0.34475">
        <ele>292.38</ele>
        <time>2012-05-29T13:45:02Z</time>
      </trkpt>
      <trkpt lat="43.16773" lon="-0.34465">
        <ele>293.34</ele>
        <time>2012-05-29T13:45:11Z</time>
      </trkpt>
      <trkpt lat="43.16767" lon="-0.34455">
        <ele>292.86</ele>
        <time>2012-05-29T13:45:20Z</time>
      </trkpt>
      <trkpt lat="43.1676" lon="-0.34446">
        <ele>291.9</ele>
        <time>2012-05-29T13:45:28Z</time>
      </trkpt>
      <trkpt lat="43.16751" lon="-0.3444">
        <ele>292.86</ele>
        <time>2012-05-29T13:45:36Z</time>
      </trkpt>
      <trkpt lat="43.16743" lon="-0.34435">
        <ele>293.82</ele>
        <time>2012-05-29T13:45:46Z</time>
      </trkpt>
      <trkpt lat="43.16734" lon="-0.34431">
        <ele>293.82</ele>
        <time>2012-05-29T13:45:56Z</time>
      </trkpt>
      <trkpt lat="43.16727" lon="-0.34425">
        <ele>295.74</ele>
        <time>2012-05-29T13:46:10Z</time>
      </trkpt>
      <trkpt lat="43.16724" lon="-0.34413">
        <ele>295.26</ele>
        <time>2012-05-29T13:46:20Z</time>
      </trkpt>
      <trkpt lat="43.16719" lon="-0.34403">
        <ele>295.26</ele>
        <time>2012-05-29T13:46:43Z</time>
      </trkpt>
      <trkpt lat="43.16717" lon="-0.3439">
        <ele>296.22</ele>
        <time>2012-05-29T13:46:51Z</time>
      </trkpt>
      <trkpt lat="43.16709" lon="-0.34377">
        <ele>297.67</ele>
        <time>2012-05-29T13:47:02Z</time>
      </trkpt>
      <trkpt lat="43.16701" lon="-0.34365">
        <ele>298.15</ele>
        <time>2012-05-29T13:47:14Z</time>
      </trkpt>
      <trkpt lat="43.16697" lon="-0.34353">
        <ele>298.63</ele>
        <time>2012-05-29T13:47:27Z</time>
      </trkpt>
      <trkpt lat="43.16688" lon="-0.34346">
        <ele>299.11</ele>
        <time>2012-05-29T13:47:37Z</time>
      </trkpt>
      <trkpt lat="43.1668" lon="-0.34343">
        <ele>297.67</ele>
        <time>2012-05-29T13:47:47Z</time>
      </trkpt>
      <trkpt lat="43.16675" lon="-0.34333">
        <ele>297.18</ele>
        <time>2012-05-29T13:48:12Z</time>
      </trkpt>
      <trkpt lat="43.16669" lon="-0.3432">
        <ele>297.18</ele>
        <time>2012-05-29T13:49:44Z</time>
      </trkpt>
      <trkpt lat="43.1666" lon="-0.34303">
        <ele>295.74</ele>
        <time>2012-05-29T13:49:52Z</time>
      </trkpt>
      <trkpt lat="43.16647" lon="-0.34293">
        <ele>295.74</ele>
        <time>2012-05-29T13:50:00Z</time>
      </trkpt>
      <trkpt lat="43.16636" lon="-0.34286">
        <ele>295.74</ele>
        <time>2012-05-29T13:50:08Z</time>
      </trkpt>
      <trkpt lat="43.16626" lon="-0.34282">
        <ele>295.74</ele>
        <time>2012-05-29T13:50:15Z</time>
      </trkpt>
      <trkpt lat="43.16617" lon="-0.34277">
        <ele>295.74</ele>
        <time>2012-05-29T13:50:24Z</time>
      </trkpt>
      <trkpt lat="43.16605" lon="-0.34271">
        <ele>295.26</ele>
        <time>2012-05-29T13:50:32Z</time>
      </trkpt>
      <trkpt lat="43.16596" lon="-0.34263">
        <ele>295.26</ele>
        <time>2012-05-29T13:50:40Z</time>
      </trkpt>
      <trkpt lat="43.16592" lon="-0.34247">
        <ele>295.74</ele>
        <time>2012-05-29T13:50:48Z</time>
      </trkpt>
      <trkpt lat="43.16589" lon="-0.34231">
        <ele>295.74</ele>
        <time>2012-05-29T13:50:55Z</time>
      </trkpt>
      <trkpt lat="43.16585" lon="-0.34213">
        <ele>295.26</ele>
        <time>2012-05-29T13:51:10Z</time>
      </trkpt>
      <trkpt lat="43.16577" lon="-0.34195">
        <ele>295.74</ele>
        <time>2012-05-29T13:51:25Z</time>
      </trkpt>
      <trkpt lat="43.16569" lon="-0.34175">
        <ele>295.74</ele>
        <time>2012-05-29T13:51:34Z</time>
      </trkpt>
      <trkpt lat="43.16555" lon="-0.34162">
        <ele>295.74</ele>
        <time>2012-05-29T13:51:43Z</time>
      </trkpt>
      <trkpt lat="43.16548" lon="-0.34154">
        <ele>295.74</ele>
        <time>2012-05-29T13:51:50Z</time>
      </trkpt>
      <trkpt lat="43.16538" lon="-0.3415">
        <ele>295.26</ele>
        <time>2012-05-29T13:51:59Z</time>
      </trkpt>
      <trkpt lat="43.16529" lon="-0.34147">
        <ele>295.26</ele>
        <time>2012-05-29T13:52:07Z</time>
      </trkpt>
      <trkpt lat="43.16517" lon="-0.34141">
        <ele>295.26</ele>
        <time>2012-05-29T13:52:23Z</time>
      </trkpt>
      <trkpt lat="43.16505" lon="-0.34136">
        <ele>295.26</ele>
        <time>2012-05-29T13:52:34Z</time>
      </trkpt>
      <trkpt lat="43.16496" lon="-0.34137">
        <ele>295.26</ele>
        <time>2012-05-29T13:52:42Z</time>
      </trkpt>
      <trkpt lat="43.16487" lon="-0.34133">
        <ele>295.26</ele>
        <time>2012-05-29T13:52:52Z</time>
      </trkpt>
      <trkpt lat="43.16478" lon="-0.34132">
        <ele>295.26</ele>
        <time>2012-05-29T13:53:00Z</time>
      </trkpt>
      <trkpt lat="43.16463" lon="-0.34132">
        <ele>295.74</ele>
        <time>2012-05-29T13:53:24Z</time>
      </trkpt>
      <trkpt lat="43.1645" lon="-0.34129">
        <ele>296.7</ele>
        <time>2012-05-29T13:53:33Z</time>
      </trkpt>
      <trkpt lat="43.16442" lon="-0.34126">
        <ele>296.22</ele>
        <time>2012-05-29T13:54:05Z</time>
      </trkpt>
      <trkpt lat="43.16436" lon="-0.34092">
        <ele>296.22</ele>
        <time>2012-05-29T13:54:55Z</time>
      </trkpt>
      <trkpt lat="43.16416" lon="-0.3407">
        <ele>296.22</ele>
        <time>2012-05-29T13:55:08Z</time>
      </trkpt>
      <trkpt lat="43.16404" lon="-0.3407">
        <ele>296.22</ele>
        <time>2012-05-29T13:56:04Z</time>
      </trkpt>
      <trkpt lat="43.1638" lon="-0.34074">
        <ele>295.74</ele>
        <time>2012-05-29T13:56:17Z</time>
      </trkpt>
      <trkpt lat="43.16362" lon="-0.34078">
        <ele>296.7</ele>
        <time>2012-05-29T13:56:32Z</time>
      </trkpt>
      <trkpt lat="43.16352" lon="-0.34079">
        <ele>297.18</ele>
        <time>2012-05-29T13:56:41Z</time>
      </trkpt>
      <trkpt lat="43.16341" lon="-0.3408">
        <ele>296.7</ele>
        <time>2012-05-29T13:56:49Z</time>
      </trkpt>
      <trkpt lat="43.16331" lon="-0.3408">
        <ele>296.7</ele>
        <time>2012-05-29T13:56:56Z</time>
      </trkpt>
      <trkpt lat="43.16321" lon="-0.34075">
        <ele>296.7</ele>
        <time>2012-05-29T13:57:04Z</time>
      </trkpt>
      <trkpt lat="43.16312" lon="-0.34073">
        <ele>297.18</ele>
        <time>2012-05-29T13:57:15Z</time>
      </trkpt>
      <trkpt lat="43.16301" lon="-0.34077">
        <ele>297.18</ele>
        <time>2012-05-29T13:57:27Z</time>
      </trkpt>
      <trkpt lat="43.1629" lon="-0.34077">
        <ele>297.18</ele>
        <time>2012-05-29T13:57:35Z</time>
      </trkpt>
      <trkpt lat="43.16281" lon="-0.34075">
        <ele>297.67</ele>
        <time>2012-05-29T13:57:41Z</time>
      </trkpt>
      <trkpt lat="43.16272" lon="-0.34077">
        <ele>297.67</ele>
        <time>2012-05-29T13:57:48Z</time>
      </trkpt>
      <trkpt lat="43.16263" lon="-0.34076">
        <ele>297.67</ele>
        <time>2012-05-29T13:57:56Z</time>
      </trkpt>
      <trkpt lat="43.16254" lon="-0.34079">
        <ele>298.15</ele>
        <time>2012-05-29T13:58:08Z</time>
      </trkpt>
      <trkpt lat="43.16246" lon="-0.34078">
        <ele>298.63</ele>
        <time>2012-05-29T13:58:22Z</time>
      </trkpt>
      <trkpt lat="43.16225" lon="-0.34088">
        <ele>298.63</ele>
        <time>2012-05-29T13:58:48Z</time>
      </trkpt>
      <trkpt lat="43.16215" lon="-0.34092">
        <ele>298.15</ele>
        <time>2012-05-29T13:58:55Z</time>
      </trkpt>
      <trkpt lat="43.16209" lon="-0.34096">
        <ele>299.11</ele>
        <time>2012-05-29T13:59:14Z</time>
      </trkpt>
      <trkpt lat="43.16199" lon="-0.341">
        <ele>299.11</ele>
        <time>2012-05-29T13:59:24Z</time>
      </trkpt>
      <trkpt lat="43.16186" lon="-0.3411">
        <ele>298.63</ele>
        <time>2012-05-29T13:59:45Z</time>
      </trkpt>
      <trkpt lat="43.16176" lon="-0.34108">
        <ele>300.07</ele>
        <time>2012-05-29T13:59:55Z</time>
      </trkpt>
      <trkpt lat="43.16163" lon="-0.3411">
        <ele>300.55</ele>
        <time>2012-05-29T14:00:07Z</time>
      </trkpt>
      <trkpt lat="43.16149" lon="-0.34115">
        <ele>301.03</ele>
        <time>2012-05-29T14:00:29Z</time>
      </trkpt>
      <trkpt lat="43.16141" lon="-0.34121">
        <ele>300.55</ele>
        <time>2012-05-29T14:00:37Z</time>
      </trkpt>
      <trkpt lat="43.16132" lon="-0.34124">
        <ele>300.07</ele>
        <time>2012-05-29T14:00:55Z</time>
      </trkpt>
      <trkpt lat="43.16124" lon="-0.34127">
        <ele>300.55</ele>
        <time>2012-05-29T14:01:07Z</time>
      </trkpt>
      <trkpt lat="43.16114" lon="-0.34131">
        <ele>301.03</ele>
        <time>2012-05-29T14:01:23Z</time>
      </trkpt>
      <trkpt lat="43.16106" lon="-0.34139">
        <ele>301.51</ele>
        <time>2012-05-29T14:01:34Z</time>
      </trkpt>
      <trkpt lat="43.161" lon="-0.34152">
        <ele>302.47</ele>
        <time>2012-05-29T14:01:45Z</time>
      </trkpt>
      <trkpt lat="43.1609" lon="-0.34155">
        <ele>303.43</ele>
        <time>2012-05-29T14:01:58Z</time>
      </trkpt>
      <trkpt lat="43.16083" lon="-0.34161">
        <ele>303.43</ele>
        <time>2012-05-29T14:02:08Z</time>
      </trkpt>
      <trkpt lat="43.16074" lon="-0.34166">
        <ele>302.95</ele>
        <time>2012-05-29T14:02:18Z</time>
      </trkpt>
      <trkpt lat="43.16064" lon="-0.34172">
        <ele>301.99</ele>
        <time>2012-05-29T14:02:34Z</time>
      </trkpt>
      <trkpt lat="43.16053" lon="-0.34173">
        <ele>302.47</ele>
        <time>2012-05-29T14:02:41Z</time>
      </trkpt>
      <trkpt lat="43.16045" lon="-0.34179">
        <ele>302.95</ele>
        <time>2012-05-29T14:02:50Z</time>
      </trkpt>
      <trkpt lat="43.16036" lon="-0.3418">
        <ele>303.91</ele>
        <time>2012-05-29T14:02:57Z</time>
      </trkpt>
      <trkpt lat="43.16028" lon="-0.34181">
        <ele>303.91</ele>
        <time>2012-05-29T14:03:06Z</time>
      </trkpt>
      <trkpt lat="43.16019" lon="-0.34188">
        <ele>303.91</ele>
        <time>2012-05-29T14:03:15Z</time>
      </trkpt>
      <trkpt lat="43.16014" lon="-0.34199">
        <ele>303.43</ele>
        <time>2012-05-29T14:03:24Z</time>
      </trkpt>
      <trkpt lat="43.16005" lon="-0.34199">
        <ele>303.43</ele>
        <time>2012-05-29T14:03:37Z</time>
      </trkpt>
      <trkpt lat="43.15996" lon="-0.34202">
        <ele>303.91</ele>
        <time>2012-05-29T14:03:45Z</time>
      </trkpt>
      <trkpt lat="43.15987" lon="-0.34207">
        <ele>303.43</ele>
        <time>2012-05-29T14:04:02Z</time>
      </trkpt>
      <trkpt lat="43.1597" lon="-0.34212">
        <ele>303.43</ele>
        <time>2012-05-29T14:04:15Z</time>
      </trkpt>
      <trkpt lat="43.15949" lon="-0.34224">
        <ele>304.39</ele>
        <time>2012-05-29T14:04:38Z</time>
      </trkpt>
      <trkpt lat="43.15939" lon="-0.34226">
        <ele>305.84</ele>
        <time>2012-05-29T14:04:47Z</time>
      </trkpt>
      <trkpt lat="43.15925" lon="-0.34233">
        <ele>304.88</ele>
        <time>2012-05-29T14:05:10Z</time>
      </trkpt>
      <trkpt lat="43.15915" lon="-0.34234">
        <ele>305.36</ele>
        <time>2012-05-29T14:05:18Z</time>
      </trkpt>
      <trkpt lat="43.15899" lon="-0.34242">
        <ele>305.84</ele>
        <time>2012-05-29T14:05:28Z</time>
      </trkpt>
      <trkpt lat="43.1589" lon="-0.34245">
        <ele>306.32</ele>
        <time>2012-05-29T14:05:37Z</time>
      </trkpt>
      <trkpt lat="43.15881" lon="-0.34246">
        <ele>306.8</ele>
        <time>2012-05-29T14:05:46Z</time>
      </trkpt>
      <trkpt lat="43.15872" lon="-0.34247">
        <ele>306.8</ele>
        <time>2012-05-29T14:05:55Z</time>
      </trkpt>
      <trkpt lat="43.15865" lon="-0.3424">
        <ele>308.72</ele>
        <time>2012-05-29T14:06:26Z</time>
      </trkpt>
      <trkpt lat="43.15865" lon="-0.3424">
        <ele>308.24</ele>
        <time>2012-05-29T14:06:45Z</time>
      </trkpt>
      <trkpt lat="43.15873" lon="-0.34258">
        <ele>308.24</ele>
        <time>2012-05-29T14:08:53Z</time>
      </trkpt>
      <trkpt lat="43.15871" lon="-0.34263">
        <ele>308.72</ele>
        <time>2012-05-29T14:11:50Z</time>
      </trkpt>
      <trkpt lat="43.15865" lon="-0.34265">
        <ele>309.68</ele>
        <time>2012-05-29T14:14:11Z</time>
      </trkpt>
      <trkpt lat="43.15865" lon="-0.34274">
        <ele>311.12</ele>
        <time>2012-05-29T14:14:27Z</time>
      </trkpt>
      <trkpt lat="43.15857" lon="-0.34264">
        <ele>312.57</ele>
        <time>2012-05-29T14:15:05Z</time>
      </trkpt>
      <trkpt lat="43.15852" lon="-0.34255">
        <ele>313.05</ele>
        <time>2012-05-29T14:15:15Z</time>
      </trkpt>
      <trkpt lat="43.15854" lon="-0.34254">
        <ele>313.53</ele>
        <time>2012-05-29T14:18:33Z</time>
      </trkpt>
      <trkpt lat="43.15839" lon="-0.34252">
        <ele>313.53</ele>
        <time>2012-05-29T14:18:57Z</time>
      </trkpt>
      <trkpt lat="43.15832" lon="-0.34244">
        <ele>314.01</ele>
        <time>2012-05-29T14:19:05Z</time>
      </trkpt>
      <trkpt lat="43.15839" lon="-0.3425">
        <ele>314.01</ele>
        <time>2012-05-29T14:19:17Z</time>
      </trkpt>
      <trkpt lat="43.15839" lon="-0.34246">
        <ele>314.49</ele>
        <time>2012-05-29T14:19:39Z</time>
      </trkpt>
      <trkpt lat="43.1583" lon="-0.34242">
        <ele>314.01</ele>
        <time>2012-05-29T14:19:50Z</time>
      </trkpt>
      <trkpt lat="43.15821" lon="-0.34242">
        <ele>314.97</ele>
        <time>2012-05-29T14:20:01Z</time>
      </trkpt>
      <trkpt lat="43.15811" lon="-0.3424">
        <ele>316.41</ele>
        <time>2012-05-29T14:20:11Z</time>
      </trkpt>
      <trkpt lat="43.15802" lon="-0.3424">
        <ele>317.85</ele>
        <time>2012-05-29T14:20:24Z</time>
      </trkpt>
      <trkpt lat="43.15794" lon="-0.34243">
        <ele>319.78</ele>
        <time>2012-05-29T14:20:37Z</time>
      </trkpt>
      <trkpt lat="43.15786" lon="-0.34248">
        <ele>321.7</ele>
        <time>2012-05-29T14:20:51Z</time>
      </trkpt>
      <trkpt lat="43.15776" lon="-0.34251">
        <ele>324.1</ele>
        <time>2012-05-29T14:21:03Z</time>
      </trkpt>
      <trkpt lat="43.15763" lon="-0.34245">
        <ele>325.06</ele>
        <time>2012-05-29T14:21:16Z</time>
      </trkpt>
      <trkpt lat="43.15755" lon="-0.34245">
        <ele>326.5</ele>
        <time>2012-05-29T14:21:24Z</time>
      </trkpt>
      <trkpt lat="43.15746" lon="-0.34247">
        <ele>327.95</ele>
        <time>2012-05-29T14:21:36Z</time>
      </trkpt>
      <trkpt lat="43.15737" lon="-0.3424">
        <ele>328.91</ele>
        <time>2012-05-29T14:21:45Z</time>
      </trkpt>
      <trkpt lat="43.15728" lon="-0.34238">
        <ele>330.83</ele>
        <time>2012-05-29T14:21:57Z</time>
      </trkpt>
      <trkpt lat="43.1572" lon="-0.34236">
        <ele>331.79</ele>
        <time>2012-05-29T14:22:08Z</time>
      </trkpt>
      <trkpt lat="43.15711" lon="-0.34239">
        <ele>332.75</ele>
        <time>2012-05-29T14:22:18Z</time>
      </trkpt>
      <trkpt lat="43.15706" lon="-0.34231">
        <ele>332.27</ele>
        <time>2012-05-29T14:22:30Z</time>
      </trkpt>
      <trkpt lat="43.15688" lon="-0.34228">
        <ele>333.23</ele>
        <time>2012-05-29T14:22:44Z</time>
      </trkpt>
      <trkpt lat="43.1568" lon="-0.34227">
        <ele>333.71</ele>
        <time>2012-05-29T14:22:52Z</time>
      </trkpt>
      <trkpt lat="43.15671" lon="-0.34231">
        <ele>334.68</ele>
        <time>2012-05-29T14:23:03Z</time>
      </trkpt>
      <trkpt lat="43.1566" lon="-0.34235">
        <ele>335.16</ele>
        <time>2012-05-29T14:23:12Z</time>
      </trkpt>
      <trkpt lat="43.15649" lon="-0.34247">
        <ele>335.64</ele>
        <time>2012-05-29T14:23:22Z</time>
      </trkpt>
      <trkpt lat="43.15644" lon="-0.34257">
        <ele>336.6</ele>
        <time>2012-05-29T14:23:31Z</time>
      </trkpt>
      <trkpt lat="43.15635" lon="-0.34262">
        <ele>337.56</ele>
        <time>2012-05-29T14:23:39Z</time>
      </trkpt>
      <trkpt lat="43.15627" lon="-0.34267">
        <ele>337.56</ele>
        <time>2012-05-29T14:23:50Z</time>
      </trkpt>
      <trkpt lat="43.15622" lon="-0.3428">
        <ele>337.56</ele>
        <time>2012-05-29T14:24:00Z</time>
      </trkpt>
      <trkpt lat="43.15614" lon="-0.34287">
        <ele>337.56</ele>
        <time>2012-05-29T14:24:07Z</time>
      </trkpt>
      <trkpt lat="43.15606" lon="-0.34288">
        <ele>337.08</ele>
        <time>2012-05-29T14:25:04Z</time>
      </trkpt>
      <trkpt lat="43.15596" lon="-0.34287">
        <ele>335.64</ele>
        <time>2012-05-29T14:25:15Z</time>
      </trkpt>
      <trkpt lat="43.15587" lon="-0.34288">
        <ele>335.16</ele>
        <time>2012-05-29T14:25:22Z</time>
      </trkpt>
      <trkpt lat="43.15579" lon="-0.34284">
        <ele>334.2</ele>
        <time>2012-05-29T14:25:32Z</time>
      </trkpt>
      <trkpt lat="43.1557" lon="-0.34288">
        <ele>335.16</ele>
        <time>2012-05-29T14:25:40Z</time>
      </trkpt>
      <trkpt lat="43.15565" lon="-0.34279">
        <ele>338.04</ele>
        <time>2012-05-29T14:25:54Z</time>
      </trkpt>
      <trkpt lat="43.15556" lon="-0.34267">
        <ele>340.44</ele>
        <time>2012-05-29T14:26:30Z</time>
      </trkpt>
      <trkpt lat="43.15547" lon="-0.34247">
        <ele>339.48</ele>
        <time>2012-05-29T14:26:39Z</time>
      </trkpt>
      <trkpt lat="43.15536" lon="-0.34235">
        <ele>339.48</ele>
        <time>2012-05-29T14:26:48Z</time>
      </trkpt>
      <trkpt lat="43.15531" lon="-0.34226">
        <ele>339.48</ele>
        <time>2012-05-29T14:26:59Z</time>
      </trkpt>
      <trkpt lat="43.15524" lon="-0.34219">
        <ele>339.48</ele>
        <time>2012-05-29T14:27:24Z</time>
      </trkpt>
      <trkpt lat="43.15518" lon="-0.34199">
        <ele>340.92</ele>
        <time>2012-05-29T14:28:10Z</time>
      </trkpt>
      <trkpt lat="43.15519" lon="-0.34185">
        <ele>343.81</ele>
        <time>2012-05-29T14:28:46Z</time>
      </trkpt>
      <trkpt lat="43.15522" lon="-0.34162">
        <ele>345.73</ele>
        <time>2012-05-29T14:29:06Z</time>
      </trkpt>
      <trkpt lat="43.15523" lon="-0.3415">
        <ele>346.21</ele>
        <time>2012-05-29T14:30:37Z</time>
      </trkpt>
      <trkpt lat="43.15518" lon="-0.34142">
        <ele>347.65</ele>
        <time>2012-05-29T14:30:46Z</time>
      </trkpt>
      <trkpt lat="43.15512" lon="-0.34132">
        <ele>350.54</ele>
        <time>2012-05-29T14:31:33Z</time>
      </trkpt>
      <trkpt lat="43.15503" lon="-0.34105">
        <ele>351.5</ele>
        <time>2012-05-29T14:31:50Z</time>
      </trkpt>
      <trkpt lat="43.15499" lon="-0.34097">
        <ele>352.94</ele>
        <time>2012-05-29T14:32:02Z</time>
      </trkpt>
      <trkpt lat="43.15498" lon="-0.34084">
        <ele>353.9</ele>
        <time>2012-05-29T14:32:21Z</time>
      </trkpt>
      <trkpt lat="43.15496" lon="-0.34071">
        <ele>354.86</ele>
        <time>2012-05-29T14:32:33Z</time>
      </trkpt>
      <trkpt lat="43.15497" lon="-0.34061">
        <ele>355.83</ele>
        <time>2012-05-29T14:32:47Z</time>
      </trkpt>
      <trkpt lat="43.15492" lon="-0.3405">
        <ele>356.79</ele>
        <time>2012-05-29T14:33:01Z</time>
      </trkpt>
      <trkpt lat="43.15488" lon="-0.3404">
        <ele>357.75</ele>
        <time>2012-05-29T14:33:12Z</time>
      </trkpt>
      <trkpt lat="43.15484" lon="-0.34029">
        <ele>358.71</ele>
        <time>2012-05-29T14:33:25Z</time>
      </trkpt>
      <trkpt lat="43.15482" lon="-0.34014">
        <ele>360.15</ele>
        <time>2012-05-29T14:33:42Z</time>
      </trkpt>
      <trkpt lat="43.15477" lon="-0.34004">
        <ele>361.11</ele>
        <time>2012-05-29T14:33:55Z</time>
      </trkpt>
      <trkpt lat="43.15474" lon="-0.33992">
        <ele>362.07</ele>
        <time>2012-05-29T14:34:06Z</time>
      </trkpt>
      <trkpt lat="43.15472" lon="-0.3398">
        <ele>364</ele>
        <time>2012-05-29T14:34:21Z</time>
      </trkpt>
      <trkpt lat="43.15467" lon="-0.33969">
        <ele>366.4</ele>
        <time>2012-05-29T14:34:39Z</time>
      </trkpt>
      <trkpt lat="43.15466" lon="-0.33958">
        <ele>367.36</ele>
        <time>2012-05-29T14:34:50Z</time>
      </trkpt>
      <trkpt lat="43.15459" lon="-0.33947">
        <ele>369.76</ele>
        <time>2012-05-29T14:35:26Z</time>
      </trkpt>
      <trkpt lat="43.15456" lon="-0.33936">
        <ele>371.21</ele>
        <time>2012-05-29T14:35:37Z</time>
      </trkpt>
      <trkpt lat="43.15451" lon="-0.33926">
        <ele>371.69</ele>
        <time>2012-05-29T14:35:50Z</time>
      </trkpt>
      <trkpt lat="43.15447" lon="-0.33916">
        <ele>373.13</ele>
        <time>2012-05-29T14:36:06Z</time>
      </trkpt>
      <trkpt lat="43.15445" lon="-0.33905">
        <ele>374.57</ele>
        <time>2012-05-29T14:36:20Z</time>
      </trkpt>
      <trkpt lat="43.1544" lon="-0.33894">
        <ele>376.49</ele>
        <time>2012-05-29T14:36:38Z</time>
      </trkpt>
      <trkpt lat="43.15435" lon="-0.33884">
        <ele>377.94</ele>
        <time>2012-05-29T14:36:53Z</time>
      </trkpt>
      <trkpt lat="43.15429" lon="-0.33873">
        <ele>379.38</ele>
        <time>2012-05-29T14:37:09Z</time>
      </trkpt>
      <trkpt lat="43.15426" lon="-0.33862">
        <ele>380.34</ele>
        <time>2012-05-29T14:37:21Z</time>
      </trkpt>
      <trkpt lat="43.15424" lon="-0.33848">
        <ele>381.78</ele>
        <time>2012-05-29T14:37:35Z</time>
      </trkpt>
      <trkpt lat="43.15422" lon="-0.33838">
        <ele>381.78</ele>
        <time>2012-05-29T14:38:24Z</time>
      </trkpt>
      <trkpt lat="43.15432" lon="-0.3384">
        <ele>381.3</ele>
        <time>2012-05-29T14:38:35Z</time>
      </trkpt>
      <trkpt lat="43.15441" lon="-0.3384">
        <ele>380.82</ele>
        <time>2012-05-29T14:38:45Z</time>
      </trkpt>
      <trkpt lat="43.15451" lon="-0.33839">
        <ele>380.34</ele>
        <time>2012-05-29T14:38:56Z</time>
      </trkpt>
      <trkpt lat="43.15461" lon="-0.33839">
        <ele>380.34</ele>
        <time>2012-05-29T14:39:06Z</time>
      </trkpt>
      <trkpt lat="43.15466" lon="-0.33836">
        <ele>380.82</ele>
        <time>2012-05-29T14:40:04Z</time>
      </trkpt>
      <trkpt lat="43.15474" lon="-0.33846">
        <ele>381.3</ele>
        <time>2012-05-29T14:40:50Z</time>
      </trkpt>
      <trkpt lat="43.15483" lon="-0.33859">
        <ele>380.82</ele>
        <time>2012-05-29T14:41:01Z</time>
      </trkpt>
      <trkpt lat="43.15489" lon="-0.33864">
        <ele>380.82</ele>
        <time>2012-05-29T14:41:21Z</time>
      </trkpt>
      <trkpt lat="43.15498" lon="-0.33872">
        <ele>380.82</ele>
        <time>2012-05-29T14:41:48Z</time>
      </trkpt>
      <trkpt lat="43.15506" lon="-0.33882">
        <ele>382.26</ele>
        <time>2012-05-29T14:41:58Z</time>
      </trkpt>
      <trkpt lat="43.15514" lon="-0.33889">
        <ele>383.22</ele>
        <time>2012-05-29T14:42:08Z</time>
      </trkpt>
      <trkpt lat="43.15521" lon="-0.33898">
        <ele>384.18</ele>
        <time>2012-05-29T14:42:17Z</time>
      </trkpt>
      <trkpt lat="43.15529" lon="-0.33906">
        <ele>385.15</ele>
        <time>2012-05-29T14:42:27Z</time>
      </trkpt>
      <trkpt lat="43.15537" lon="-0.33914">
        <ele>385.63</ele>
        <time>2012-05-29T14:42:37Z</time>
      </trkpt>
      <trkpt lat="43.15545" lon="-0.33924">
        <ele>386.59</ele>
        <time>2012-05-29T14:42:47Z</time>
      </trkpt>
      <trkpt lat="43.15552" lon="-0.33933">
        <ele>386.59</ele>
        <time>2012-05-29T14:42:56Z</time>
      </trkpt>
      <trkpt lat="43.15559" lon="-0.33942">
        <ele>387.07</ele>
        <time>2012-05-29T14:43:05Z</time>
      </trkpt>
      <trkpt lat="43.15566" lon="-0.33953">
        <ele>387.55</ele>
        <time>2012-05-29T14:43:14Z</time>
      </trkpt>
      <trkpt lat="43.15573" lon="-0.33964">
        <ele>388.03</ele>
        <time>2012-05-29T14:43:23Z</time>
      </trkpt>
      <trkpt lat="43.15579" lon="-0.33973">
        <ele>388.03</ele>
        <time>2012-05-29T14:43:31Z</time>
      </trkpt>
      <trkpt lat="43.15586" lon="-0.33982">
        <ele>388.51</ele>
        <time>2012-05-29T14:43:40Z</time>
      </trkpt>
      <trkpt lat="43.15594" lon="-0.3399">
        <ele>388.99</ele>
        <time>2012-05-29T14:43:49Z</time>
      </trkpt>
      <trkpt lat="43.15603" lon="-0.33995">
        <ele>389.95</ele>
        <time>2012-05-29T14:43:59Z</time>
      </trkpt>
      <trkpt lat="43.15614" lon="-0.33995">
        <ele>390.91</ele>
        <time>2012-05-29T14:44:09Z</time>
      </trkpt>
      <trkpt lat="43.15623" lon="-0.33989">
        <ele>390.91</ele>
        <time>2012-05-29T14:44:18Z</time>
      </trkpt>
      <trkpt lat="43.1563" lon="-0.33978">
        <ele>390.91</ele>
        <time>2012-05-29T14:44:30Z</time>
      </trkpt>
      <trkpt lat="43.1563" lon="-0.33969">
        <ele>390.91</ele>
        <time>2012-05-29T14:44:57Z</time>
      </trkpt>
      <trkpt lat="43.15633" lon="-0.33965">
        <ele>390.43</ele>
        <time>2012-05-29T14:45:19Z</time>
      </trkpt>
      <trkpt lat="43.1564" lon="-0.33956">
        <ele>390.43</ele>
        <time>2012-05-29T14:45:28Z</time>
      </trkpt>
      <trkpt lat="43.15641" lon="-0.33943">
        <ele>390.91</ele>
        <time>2012-05-29T14:45:38Z</time>
      </trkpt>
      <trkpt lat="43.1564" lon="-0.33927">
        <ele>390.43</ele>
        <time>2012-05-29T14:45:48Z</time>
      </trkpt>
      <trkpt lat="43.15636" lon="-0.33913">
        <ele>389.47</ele>
        <time>2012-05-29T14:45:58Z</time>
      </trkpt>
      <trkpt lat="43.15633" lon="-0.33899">
        <ele>389.95</ele>
        <time>2012-05-29T14:46:07Z</time>
      </trkpt>
      <trkpt lat="43.15628" lon="-0.33887">
        <ele>389.95</ele>
        <time>2012-05-29T14:46:17Z</time>
      </trkpt>
      <trkpt lat="43.15624" lon="-0.33874">
        <ele>389.47</ele>
        <time>2012-05-29T14:46:27Z</time>
      </trkpt>
      <trkpt lat="43.1562" lon="-0.33856">
        <ele>388.99</ele>
        <time>2012-05-29T14:46:39Z</time>
      </trkpt>
      <trkpt lat="43.15623" lon="-0.3384">
        <ele>388.99</ele>
        <time>2012-05-29T14:46:49Z</time>
      </trkpt>
      <trkpt lat="43.15629" lon="-0.33822">
        <ele>388.03</ele>
        <time>2012-05-29T14:46:58Z</time>
      </trkpt>
      <trkpt lat="43.15633" lon="-0.33811">
        <ele>388.03</ele>
        <time>2012-05-29T14:47:07Z</time>
      </trkpt>
      <trkpt lat="43.15639" lon="-0.33798">
        <ele>387.55</ele>
        <time>2012-05-29T14:47:17Z</time>
      </trkpt>
      <trkpt lat="43.15642" lon="-0.33786">
        <ele>387.55</ele>
        <time>2012-05-29T14:47:27Z</time>
      </trkpt>
      <trkpt lat="43.15647" lon="-0.33775">
        <ele>387.55</ele>
        <time>2012-05-29T14:47:36Z</time>
      </trkpt>
      <trkpt lat="43.15658" lon="-0.33763">
        <ele>386.59</ele>
        <time>2012-05-29T14:47:47Z</time>
      </trkpt>
      <trkpt lat="43.1567" lon="-0.33761">
        <ele>386.11</ele>
        <time>2012-05-29T14:47:57Z</time>
      </trkpt>
      <trkpt lat="43.15681" lon="-0.3376">
        <ele>385.15</ele>
        <time>2012-05-29T14:48:06Z</time>
      </trkpt>
      <trkpt lat="43.15692" lon="-0.33762">
        <ele>384.66</ele>
        <time>2012-05-29T14:48:14Z</time>
      </trkpt>
      <trkpt lat="43.15702" lon="-0.33763">
        <ele>384.18</ele>
        <time>2012-05-29T14:48:22Z</time>
      </trkpt>
      <trkpt lat="43.15712" lon="-0.33763">
        <ele>383.22</ele>
        <time>2012-05-29T14:48:31Z</time>
      </trkpt>
      <trkpt lat="43.15721" lon="-0.33763">
        <ele>383.22</ele>
        <time>2012-05-29T14:48:39Z</time>
      </trkpt>
      <trkpt lat="43.15731" lon="-0.33763">
        <ele>382.74</ele>
        <time>2012-05-29T14:48:47Z</time>
      </trkpt>
      <trkpt lat="43.15741" lon="-0.3376">
        <ele>382.26</ele>
        <time>2012-05-29T14:48:55Z</time>
      </trkpt>
      <trkpt lat="43.1575" lon="-0.33755">
        <ele>381.78</ele>
        <time>2012-05-29T14:49:03Z</time>
      </trkpt>
      <trkpt lat="43.15759" lon="-0.33747">
        <ele>381.3</ele>
        <time>2012-05-29T14:49:11Z</time>
      </trkpt>
      <trkpt lat="43.15765" lon="-0.33736">
        <ele>380.82</ele>
        <time>2012-05-29T14:49:20Z</time>
      </trkpt>
      <trkpt lat="43.15772" lon="-0.33724">
        <ele>380.82</ele>
        <time>2012-05-29T14:49:31Z</time>
      </trkpt>
      <trkpt lat="43.15778" lon="-0.3371">
        <ele>379.86</ele>
        <time>2012-05-29T14:49:39Z</time>
      </trkpt>
      <trkpt lat="43.15784" lon="-0.33696">
        <ele>380.34</ele>
        <time>2012-05-29T14:49:48Z</time>
      </trkpt>
      <trkpt lat="43.15789" lon="-0.33684">
        <ele>379.86</ele>
        <time>2012-05-29T14:49:57Z</time>
      </trkpt>
      <trkpt lat="43.15795" lon="-0.3367">
        <ele>380.34</ele>
        <time>2012-05-29T14:50:07Z</time>
      </trkpt>
      <trkpt lat="43.15799" lon="-0.33658">
        <ele>380.82</ele>
        <time>2012-05-29T14:50:18Z</time>
      </trkpt>
      <trkpt lat="43.15807" lon="-0.33646">
        <ele>380.34</ele>
        <time>2012-05-29T14:50:29Z</time>
      </trkpt>
      <trkpt lat="43.15815" lon="-0.33637">
        <ele>379.86</ele>
        <time>2012-05-29T14:50:38Z</time>
      </trkpt>
      <trkpt lat="43.15826" lon="-0.33631">
        <ele>378.42</ele>
        <time>2012-05-29T14:50:48Z</time>
      </trkpt>
      <trkpt lat="43.15836" lon="-0.33629">
        <ele>377.94</ele>
        <time>2012-05-29T14:50:57Z</time>
      </trkpt>
      <trkpt lat="43.15846" lon="-0.33629">
        <ele>376.97</ele>
        <time>2012-05-29T14:51:06Z</time>
      </trkpt>
      <trkpt lat="43.15856" lon="-0.33629">
        <ele>376.97</ele>
        <time>2012-05-29T14:51:15Z</time>
      </trkpt>
      <trkpt lat="43.15866" lon="-0.3363">
        <ele>377.94</ele>
        <time>2012-05-29T14:51:23Z</time>
      </trkpt>
      <trkpt lat="43.15874" lon="-0.33631">
        <ele>378.42</ele>
        <time>2012-05-29T14:51:33Z</time>
      </trkpt>
      <trkpt lat="43.15884" lon="-0.3363">
        <ele>380.34</ele>
        <time>2012-05-29T14:51:43Z</time>
      </trkpt>
      <trkpt lat="43.15895" lon="-0.33631">
        <ele>380.34</ele>
        <time>2012-05-29T14:51:52Z</time>
      </trkpt>
      <trkpt lat="43.15907" lon="-0.3363">
        <ele>381.3</ele>
        <time>2012-05-29T14:52:02Z</time>
      </trkpt>
      <trkpt lat="43.15916" lon="-0.33631">
        <ele>382.26</ele>
        <time>2012-05-29T14:52:12Z</time>
      </trkpt>
      <trkpt lat="43.15925" lon="-0.33627">
        <ele>383.22</ele>
        <time>2012-05-29T14:52:22Z</time>
      </trkpt>
      <trkpt lat="43.15934" lon="-0.33625">
        <ele>383.22</ele>
        <time>2012-05-29T14:52:34Z</time>
      </trkpt>
      <trkpt lat="43.15943" lon="-0.33625">
        <ele>383.22</ele>
        <time>2012-05-29T14:53:03Z</time>
      </trkpt>
      <trkpt lat="43.15952" lon="-0.33618">
        <ele>382.26</ele>
        <time>2012-05-29T14:53:22Z</time>
      </trkpt>
      <trkpt lat="43.15963" lon="-0.33614">
        <ele>380.82</ele>
        <time>2012-05-29T14:53:31Z</time>
      </trkpt>
      <trkpt lat="43.15973" lon="-0.33611">
        <ele>379.86</ele>
        <time>2012-05-29T14:53:41Z</time>
      </trkpt>
      <trkpt lat="43.15983" lon="-0.33605">
        <ele>378.9</ele>
        <time>2012-05-29T14:53:49Z</time>
      </trkpt>
      <trkpt lat="43.15992" lon="-0.33603">
        <ele>376.97</ele>
        <time>2012-05-29T14:54:00Z</time>
      </trkpt>
      <trkpt lat="43.16002" lon="-0.33598">
        <ele>375.05</ele>
        <time>2012-05-29T14:54:09Z</time>
      </trkpt>
      <trkpt lat="43.16011" lon="-0.33599">
        <ele>374.09</ele>
        <time>2012-05-29T14:54:17Z</time>
      </trkpt>
      <trkpt lat="43.16019" lon="-0.33598">
        <ele>373.13</ele>
        <time>2012-05-29T14:54:24Z</time>
      </trkpt>
      <trkpt lat="43.1603" lon="-0.33599">
        <ele>371.69</ele>
        <time>2012-05-29T14:54:32Z</time>
      </trkpt>
      <trkpt lat="43.1604" lon="-0.33604">
        <ele>370.73</ele>
        <time>2012-05-29T14:54:40Z</time>
      </trkpt>
      <trkpt lat="43.16051" lon="-0.33609">
        <ele>370.24</ele>
        <time>2012-05-29T14:54:49Z</time>
      </trkpt>
      <trkpt lat="43.16058" lon="-0.33613">
        <ele>370.24</ele>
        <time>2012-05-29T14:54:57Z</time>
      </trkpt>
      <trkpt lat="43.16066" lon="-0.3362">
        <ele>370.24</ele>
        <time>2012-05-29T14:55:05Z</time>
      </trkpt>
      <trkpt lat="43.16075" lon="-0.33627">
        <ele>369.76</ele>
        <time>2012-05-29T14:55:13Z</time>
      </trkpt>
      <trkpt lat="43.16087" lon="-0.33627">
        <ele>369.76</ele>
        <time>2012-05-29T14:55:23Z</time>
      </trkpt>
      <trkpt lat="43.16098" lon="-0.33619">
        <ele>370.24</ele>
        <time>2012-05-29T14:55:32Z</time>
      </trkpt>
      <trkpt lat="43.16106" lon="-0.33606">
        <ele>370.73</ele>
        <time>2012-05-29T14:55:43Z</time>
      </trkpt>
      <trkpt lat="43.16113" lon="-0.33594">
        <ele>371.21</ele>
        <time>2012-05-29T14:55:52Z</time>
      </trkpt>
      <trkpt lat="43.1612" lon="-0.33581">
        <ele>372.17</ele>
        <time>2012-05-29T14:56:02Z</time>
      </trkpt>
      <trkpt lat="43.16126" lon="-0.33566">
        <ele>373.13</ele>
        <time>2012-05-29T14:56:13Z</time>
      </trkpt>
      <trkpt lat="43.16132" lon="-0.33554">
        <ele>375.05</ele>
        <time>2012-05-29T14:56:32Z</time>
      </trkpt>
      <trkpt lat="43.16139" lon="-0.33539">
        <ele>376.49</ele>
        <time>2012-05-29T14:56:43Z</time>
      </trkpt>
      <trkpt lat="43.16145" lon="-0.33528">
        <ele>377.94</ele>
        <time>2012-05-29T14:56:53Z</time>
      </trkpt>
      <trkpt lat="43.16155" lon="-0.33519">
        <ele>379.86</ele>
        <time>2012-05-29T14:57:01Z</time>
      </trkpt>
      <trkpt lat="43.16165" lon="-0.33512">
        <ele>380.82</ele>
        <time>2012-05-29T14:57:09Z</time>
      </trkpt>
      <trkpt lat="43.16174" lon="-0.33503">
        <ele>382.74</ele>
        <time>2012-05-29T14:57:18Z</time>
      </trkpt>
      <trkpt lat="43.16185" lon="-0.33494">
        <ele>381.78</ele>
        <time>2012-05-29T14:57:28Z</time>
      </trkpt>
      <trkpt lat="43.16195" lon="-0.33486">
        <ele>384.66</ele>
        <time>2012-05-29T14:57:39Z</time>
      </trkpt>
      <trkpt lat="43.16206" lon="-0.33484">
        <ele>384.66</ele>
        <time>2012-05-29T14:57:49Z</time>
      </trkpt>
      <trkpt lat="43.16217" lon="-0.33483">
        <ele>385.15</ele>
        <time>2012-05-29T14:57:58Z</time>
      </trkpt>
      <trkpt lat="43.16227" lon="-0.33482">
        <ele>386.11</ele>
        <time>2012-05-29T14:58:06Z</time>
      </trkpt>
      <trkpt lat="43.1624" lon="-0.3348">
        <ele>385.63</ele>
        <time>2012-05-29T14:58:16Z</time>
      </trkpt>
      <trkpt lat="43.16249" lon="-0.33476">
        <ele>385.63</ele>
        <time>2012-05-29T14:58:49Z</time>
      </trkpt>
      <trkpt lat="43.16259" lon="-0.33476">
        <ele>385.15</ele>
        <time>2012-05-29T14:59:10Z</time>
      </trkpt>
      <trkpt lat="43.1627" lon="-0.33477">
        <ele>384.66</ele>
        <time>2012-05-29T14:59:19Z</time>
      </trkpt>
      <trkpt lat="43.1628" lon="-0.33477">
        <ele>384.66</ele>
        <time>2012-05-29T14:59:27Z</time>
      </trkpt>
      <trkpt lat="43.16292" lon="-0.33479">
        <ele>384.66</ele>
        <time>2012-05-29T14:59:36Z</time>
      </trkpt>
      <trkpt lat="43.16301" lon="-0.33479">
        <ele>385.15</ele>
        <time>2012-05-29T14:59:44Z</time>
      </trkpt>
      <trkpt lat="43.16312" lon="-0.3348">
        <ele>385.15</ele>
        <time>2012-05-29T14:59:53Z</time>
      </trkpt>
      <trkpt lat="43.16325" lon="-0.33483">
        <ele>385.15</ele>
        <time>2012-05-29T15:00:03Z</time>
      </trkpt>
      <trkpt lat="43.16336" lon="-0.33486">
        <ele>385.63</ele>
        <time>2012-05-29T15:00:12Z</time>
      </trkpt>
      <trkpt lat="43.16346" lon="-0.33487">
        <ele>385.63</ele>
        <time>2012-05-29T15:00:20Z</time>
      </trkpt>
      <trkpt lat="43.16357" lon="-0.3349">
        <ele>385.63</ele>
        <time>2012-05-29T15:00:29Z</time>
      </trkpt>
      <trkpt lat="43.16365" lon="-0.33496">
        <ele>386.11</ele>
        <time>2012-05-29T15:00:37Z</time>
      </trkpt>
      <trkpt lat="43.16376" lon="-0.33503">
        <ele>385.63</ele>
        <time>2012-05-29T15:00:46Z</time>
      </trkpt>
      <trkpt lat="43.16387" lon="-0.33507">
        <ele>385.15</ele>
        <time>2012-05-29T15:00:55Z</time>
      </trkpt>
      <trkpt lat="43.16397" lon="-0.33514">
        <ele>384.66</ele>
        <time>2012-05-29T15:01:04Z</time>
      </trkpt>
      <trkpt lat="43.16407" lon="-0.33519">
        <ele>384.18</ele>
        <time>2012-05-29T15:01:12Z</time>
      </trkpt>
      <trkpt lat="43.16418" lon="-0.33519">
        <ele>384.66</ele>
        <time>2012-05-29T15:01:20Z</time>
      </trkpt>
      <trkpt lat="43.16428" lon="-0.33516">
        <ele>385.15</ele>
        <time>2012-05-29T15:01:27Z</time>
      </trkpt>
      <trkpt lat="43.16436" lon="-0.33512">
        <ele>384.66</ele>
        <time>2012-05-29T15:01:33Z</time>
      </trkpt>
      <trkpt lat="43.16447" lon="-0.33506">
        <ele>384.66</ele>
        <time>2012-05-29T15:01:41Z</time>
      </trkpt>
      <trkpt lat="43.16453" lon="-0.33497">
        <ele>385.63</ele>
        <time>2012-05-29T15:01:51Z</time>
      </trkpt>
      <trkpt lat="43.16458" lon="-0.33484">
        <ele>386.11</ele>
        <time>2012-05-29T15:01:58Z</time>
      </trkpt>
      <trkpt lat="43.16465" lon="-0.33471">
        <ele>386.59</ele>
        <time>2012-05-29T15:02:05Z</time>
      </trkpt>
      <trkpt lat="43.16472" lon="-0.33459">
        <ele>387.55</ele>
        <time>2012-05-29T15:02:14Z</time>
      </trkpt>
      <trkpt lat="43.16479" lon="-0.33448">
        <ele>388.51</ele>
        <time>2012-05-29T15:02:23Z</time>
      </trkpt>
      <trkpt lat="43.16483" lon="-0.33435">
        <ele>389.47</ele>
        <time>2012-05-29T15:02:31Z</time>
      </trkpt>
      <trkpt lat="43.16488" lon="-0.33419">
        <ele>390.43</ele>
        <time>2012-05-29T15:02:40Z</time>
      </trkpt>
      <trkpt lat="43.16492" lon="-0.33407">
        <ele>390.91</ele>
        <time>2012-05-29T15:02:49Z</time>
      </trkpt>
      <trkpt lat="43.16502" lon="-0.334">
        <ele>390.91</ele>
        <time>2012-05-29T15:02:59Z</time>
      </trkpt>
      <trkpt lat="43.16511" lon="-0.33406">
        <ele>389.47</ele>
        <time>2012-05-29T15:03:09Z</time>
      </trkpt>
      <trkpt lat="43.16521" lon="-0.33411">
        <ele>388.51</ele>
        <time>2012-05-29T15:03:18Z</time>
      </trkpt>
      <trkpt lat="43.16531" lon="-0.33416">
        <ele>387.55</ele>
        <time>2012-05-29T15:03:26Z</time>
      </trkpt>
      <trkpt lat="43.16541" lon="-0.33419">
        <ele>386.59</ele>
        <time>2012-05-29T15:03:35Z</time>
      </trkpt>
      <trkpt lat="43.1655" lon="-0.33421">
        <ele>385.63</ele>
        <time>2012-05-29T15:03:44Z</time>
      </trkpt>
      <trkpt lat="43.16561" lon="-0.33421">
        <ele>385.15</ele>
        <time>2012-05-29T15:03:53Z</time>
      </trkpt>
      <trkpt lat="43.16571" lon="-0.33419">
        <ele>384.18</ele>
        <time>2012-05-29T15:04:02Z</time>
      </trkpt>
      <trkpt lat="43.16583" lon="-0.33415">
        <ele>383.22</ele>
        <time>2012-05-29T15:04:12Z</time>
      </trkpt>
      <trkpt lat="43.16595" lon="-0.33407">
        <ele>382.74</ele>
        <time>2012-05-29T15:04:23Z</time>
      </trkpt>
      <trkpt lat="43.16605" lon="-0.33397">
        <ele>381.78</ele>
        <time>2012-05-29T15:04:33Z</time>
      </trkpt>
      <trkpt lat="43.16615" lon="-0.33392">
        <ele>381.78</ele>
        <time>2012-05-29T15:04:43Z</time>
      </trkpt>
      <trkpt lat="43.16625" lon="-0.33384">
        <ele>381.78</ele>
        <time>2012-05-29T15:04:52Z</time>
      </trkpt>
      <trkpt lat="43.16634" lon="-0.33377">
        <ele>381.78</ele>
        <time>2012-05-29T15:05:00Z</time>
      </trkpt>
      <trkpt lat="43.16643" lon="-0.33372">
        <ele>381.78</ele>
        <time>2012-05-29T15:05:08Z</time>
      </trkpt>
      <trkpt lat="43.16651" lon="-0.33368">
        <ele>382.26</ele>
        <time>2012-05-29T15:05:16Z</time>
      </trkpt>
      <trkpt lat="43.16661" lon="-0.33362">
        <ele>381.78</ele>
        <time>2012-05-29T15:05:24Z</time>
      </trkpt>
      <trkpt lat="43.16671" lon="-0.33355">
        <ele>381.3</ele>
        <time>2012-05-29T15:05:33Z</time>
      </trkpt>
      <trkpt lat="43.1668" lon="-0.33349">
        <ele>380.34</ele>
        <time>2012-05-29T15:05:42Z</time>
      </trkpt>
      <trkpt lat="43.16687" lon="-0.3334">
        <ele>379.86</ele>
        <time>2012-05-29T15:05:52Z</time>
      </trkpt>
      <trkpt lat="43.16694" lon="-0.33334">
        <ele>378.9</ele>
        <time>2012-05-29T15:06:01Z</time>
      </trkpt>
      <trkpt lat="43.16706" lon="-0.33336">
        <ele>378.9</ele>
        <time>2012-05-29T15:06:11Z</time>
      </trkpt>
      <trkpt lat="43.16714" lon="-0.33342">
        <ele>378.9</ele>
        <time>2012-05-29T15:06:19Z</time>
      </trkpt>
      <trkpt lat="43.16722" lon="-0.33352">
        <ele>378.9</ele>
        <time>2012-05-29T15:06:29Z</time>
      </trkpt>
      <trkpt lat="43.16725" lon="-0.33363">
        <ele>378.9</ele>
        <time>2012-05-29T15:06:40Z</time>
      </trkpt>
      <trkpt lat="43.16731" lon="-0.33375">
        <ele>378.9</ele>
        <time>2012-05-29T15:06:52Z</time>
      </trkpt>
      <trkpt lat="43.16733" lon="-0.33389">
        <ele>378.42</ele>
        <time>2012-05-29T15:07:02Z</time>
      </trkpt>
      <trkpt lat="43.16738" lon="-0.33404">
        <ele>377.94</ele>
        <time>2012-05-29T15:07:13Z</time>
      </trkpt>
      <trkpt lat="43.16741" lon="-0.33417">
        <ele>377.45</ele>
        <time>2012-05-29T15:07:23Z</time>
      </trkpt>
      <trkpt lat="43.16745" lon="-0.3343">
        <ele>376.01</ele>
        <time>2012-05-29T15:07:33Z</time>
      </trkpt>
      <trkpt lat="43.1675" lon="-0.33441">
        <ele>374.57</ele>
        <time>2012-05-29T15:07:43Z</time>
      </trkpt>
      <trkpt lat="43.16757" lon="-0.33454">
        <ele>373.13</ele>
        <time>2012-05-29T15:07:53Z</time>
      </trkpt>
      <trkpt lat="43.16766" lon="-0.33461">
        <ele>371.69</ele>
        <time>2012-05-29T15:08:02Z</time>
      </trkpt>
      <trkpt lat="43.16777" lon="-0.3346">
        <ele>370.24</ele>
        <time>2012-05-29T15:08:10Z</time>
      </trkpt>
      <trkpt lat="43.16785" lon="-0.33458">
        <ele>369.28</ele>
        <time>2012-05-29T15:08:18Z</time>
      </trkpt>
      <trkpt lat="43.16796" lon="-0.33457">
        <ele>367.84</ele>
        <time>2012-05-29T15:08:26Z</time>
      </trkpt>
      <trkpt lat="43.16806" lon="-0.33455">
        <ele>366.4</ele>
        <time>2012-05-29T15:08:36Z</time>
      </trkpt>
      <trkpt lat="43.16813" lon="-0.3345">
        <ele>364.96</ele>
        <time>2012-05-29T15:08:44Z</time>
      </trkpt>
      <trkpt lat="43.16822" lon="-0.33443">
        <ele>363.04</ele>
        <time>2012-05-29T15:08:53Z</time>
      </trkpt>
      <trkpt lat="43.16832" lon="-0.33437">
        <ele>362.55</ele>
        <time>2012-05-29T15:09:01Z</time>
      </trkpt>
      <trkpt lat="43.16842" lon="-0.33433">
        <ele>361.11</ele>
        <time>2012-05-29T15:09:10Z</time>
      </trkpt>
      <trkpt lat="43.16853" lon="-0.33429">
        <ele>359.19</ele>
        <time>2012-05-29T15:09:19Z</time>
      </trkpt>
      <trkpt lat="43.16861" lon="-0.33424">
        <ele>358.23</ele>
        <time>2012-05-29T15:09:27Z</time>
      </trkpt>
      <trkpt lat="43.1687" lon="-0.3342">
        <ele>356.79</ele>
        <time>2012-05-29T15:09:35Z</time>
      </trkpt>
      <trkpt lat="43.1688" lon="-0.33415">
        <ele>355.83</ele>
        <time>2012-05-29T15:09:44Z</time>
      </trkpt>
      <trkpt lat="43.16889" lon="-0.33411">
        <ele>355.34</ele>
        <time>2012-05-29T15:09:51Z</time>
      </trkpt>
      <trkpt lat="43.16897" lon="-0.33411">
        <ele>354.38</ele>
        <time>2012-05-29T15:09:59Z</time>
      </trkpt>
      <trkpt lat="43.16908" lon="-0.33407">
        <ele>353.9</ele>
        <time>2012-05-29T15:10:07Z</time>
      </trkpt>
      <trkpt lat="43.16917" lon="-0.33405">
        <ele>352.94</ele>
        <time>2012-05-29T15:10:15Z</time>
      </trkpt>
      <trkpt lat="43.16926" lon="-0.334">
        <ele>351.98</ele>
        <time>2012-05-29T15:10:24Z</time>
      </trkpt>
      <trkpt lat="43.16935" lon="-0.33395">
        <ele>350.06</ele>
        <time>2012-05-29T15:10:33Z</time>
      </trkpt>
      <trkpt lat="43.16944" lon="-0.33388">
        <ele>349.1</ele>
        <time>2012-05-29T15:10:42Z</time>
      </trkpt>
      <trkpt lat="43.16952" lon="-0.3338">
        <ele>348.62</ele>
        <time>2012-05-29T15:10:51Z</time>
      </trkpt>
      <trkpt lat="43.16959" lon="-0.33372">
        <ele>347.65</ele>
        <time>2012-05-29T15:11:00Z</time>
      </trkpt>
      <trkpt lat="43.16967" lon="-0.33362">
        <ele>346.69</ele>
        <time>2012-05-29T15:11:09Z</time>
      </trkpt>
      <trkpt lat="43.16972" lon="-0.33351">
        <ele>346.21</ele>
        <time>2012-05-29T15:11:17Z</time>
      </trkpt>
      <trkpt lat="43.16975" lon="-0.33338">
        <ele>345.25</ele>
        <time>2012-05-29T15:11:25Z</time>
      </trkpt>
      <trkpt lat="43.16977" lon="-0.33324">
        <ele>345.73</ele>
        <time>2012-05-29T15:11:33Z</time>
      </trkpt>
      <trkpt lat="43.16978" lon="-0.33311">
        <ele>344.77</ele>
        <time>2012-05-29T15:11:41Z</time>
      </trkpt>
      <trkpt lat="43.16978" lon="-0.33297">
        <ele>344.77</ele>
        <time>2012-05-29T15:11:49Z</time>
      </trkpt>
      <trkpt lat="43.16978" lon="-0.33284">
        <ele>345.25</ele>
        <time>2012-05-29T15:11:57Z</time>
      </trkpt>
      <trkpt lat="43.16979" lon="-0.33269">
        <ele>344.77</ele>
        <time>2012-05-29T15:12:06Z</time>
      </trkpt>
      <trkpt lat="43.16978" lon="-0.33254">
        <ele>345.25</ele>
        <time>2012-05-29T15:12:14Z</time>
      </trkpt>
      <trkpt lat="43.16983" lon="-0.33243">
        <ele>344.77</ele>
        <time>2012-05-29T15:12:22Z</time>
      </trkpt>
      <trkpt lat="43.16988" lon="-0.33232">
        <ele>344.29</ele>
        <time>2012-05-29T15:12:30Z</time>
      </trkpt>
      <trkpt lat="43.16997" lon="-0.33225">
        <ele>343.81</ele>
        <time>2012-05-29T15:12:38Z</time>
      </trkpt>
      <trkpt lat="43.17007" lon="-0.33221">
        <ele>343.81</ele>
        <time>2012-05-29T15:12:46Z</time>
      </trkpt>
      <trkpt lat="43.17017" lon="-0.33217">
        <ele>343.81</ele>
        <time>2012-05-29T15:12:54Z</time>
      </trkpt>
      <trkpt lat="43.17026" lon="-0.33213">
        <ele>343.81</ele>
        <time>2012-05-29T15:13:02Z</time>
      </trkpt>
      <trkpt lat="43.17038" lon="-0.3321">
        <ele>344.29</ele>
        <time>2012-05-29T15:13:11Z</time>
      </trkpt>
      <trkpt lat="43.17047" lon="-0.33205">
        <ele>343.33</ele>
        <time>2012-05-29T15:13:18Z</time>
      </trkpt>
      <trkpt lat="43.17057" lon="-0.33201">
        <ele>342.37</ele>
        <time>2012-05-29T15:13:26Z</time>
      </trkpt>
      <trkpt lat="43.17066" lon="-0.33196">
        <ele>341.89</ele>
        <time>2012-05-29T15:13:35Z</time>
      </trkpt>
      <trkpt lat="43.17076" lon="-0.33191">
        <ele>338.04</ele>
        <time>2012-05-29T15:13:44Z</time>
      </trkpt>
      <trkpt lat="43.17085" lon="-0.33184">
        <ele>339.96</ele>
        <time>2012-05-29T15:13:53Z</time>
      </trkpt>
      <trkpt lat="43.17094" lon="-0.33178">
        <ele>339.48</ele>
        <time>2012-05-29T15:14:01Z</time>
      </trkpt>
      <trkpt lat="43.17095" lon="-0.33177">
        <ele>339.48</ele>
        <time>2012-05-29T15:15:21Z</time>
      </trkpt>
    </trkseg>
  </trk>
</gpx>